<?xml version='1.0' encoding='UTF-8'?><gpx version="1.1" creator="JPX - https://github.com/jenetics/jpx" xmlns="http://www.topografix.com/GPX/1/1"><trk><trkseg><trkpt lat="43.19359915280131" lon="11.747060570871508"><ele>264.0</ele><time>2026-05-03T10:16:59.999Z</time></trkpt><trkpt lat="43.19353873055147" lon="11.746967139339114"><ele>264.0</ele><time>2026-05-03T10:17:00.999Z</time></trkpt><trkpt lat="43.19346468590656" lon="11.746841396359766"><ele>264.0</ele><time>2026-05-03T10:17:01.999Z</time></trkpt><trkpt lat="43.19340237943151" lon="11.746698364254048"><ele>264.0</ele><time>2026-05-03T10:17:02.999Z</time></trkpt><trkpt lat="43.193323341130714" lon="11.746536490940182"><ele>264.6666666666667</ele><time>2026-05-03T10:17:03.999Z</time></trkpt><trkpt lat="43.193228767262035" lon="11.746360814425785"><ele>265.33333333333337</ele><time>2026-05-03T10:17:04.999Z</time></trkpt><trkpt lat="43.19313565165726" lon="11.746194099551477"><ele>266.0</ele><time>2026-05-03T10:17:05.999Z</time></trkpt><trkpt lat="43.193049502172194" lon="11.746025273896246"><ele>267.5</ele><time>2026-05-03T10:17:06.999Z</time></trkpt><trkpt lat="43.19296392289643" lon="11.745854474582867"><ele>269.0</ele><time>2026-05-03T10:17:07.999Z</time></trkpt><trkpt lat="43.19288020420761" lon="11.745695861954818"><ele>270.5</ele><time>2026-05-03T10:17:08.999Z</time></trkpt><trkpt lat="43.19279868802172" lon="11.745541900007682"><ele>272.0</ele><time>2026-05-03T10:17:09.997Z</time></trkpt><trkpt lat="43.19271977278973" lon="11.74539634318766"><ele>272.0</ele><time>2026-05-03T10:17:10.997Z</time></trkpt><trkpt lat="43.192640536737144" lon="11.745260148526002"><ele>272.0</ele><time>2026-05-03T10:17:11.997Z</time></trkpt><trkpt lat="43.192547905777175" lon="11.74514168694342"><ele>272.0</ele><time>2026-05-03T10:17:12.998Z</time></trkpt><trkpt lat="43.19244136975496" lon="11.745041874918767"><ele>272.0</ele><time>2026-05-03T10:17:13.998Z</time></trkpt><trkpt lat="43.192308674404536" lon="11.744962606672766"><ele>273.0</ele><time>2026-05-03T10:17:14.998Z</time></trkpt><trkpt lat="43.19216573827191" lon="11.744891246744094"><ele>274.0</ele><time>2026-05-03T10:17:15.998Z</time></trkpt><trkpt lat="43.19202504240116" lon="11.74484608649697"><ele>275.0</ele><time>2026-05-03T10:17:16.998Z</time></trkpt><trkpt lat="43.19189934624666" lon="11.744785984055603"><ele>276.0</ele><time>2026-05-03T10:17:17.998Z</time></trkpt><trkpt lat="43.191778112712754" lon="11.744713469903457"><ele>276.0</ele><time>2026-05-03T10:17:18.998Z</time></trkpt><trkpt lat="43.19164977022528" lon="11.744593023601231"><ele>276.0</ele><time>2026-05-03T10:17:19.998Z</time></trkpt><trkpt lat="43.191523638696935" lon="11.744431945240141"><ele>276.0</ele><time>2026-05-03T10:17:20.998Z</time></trkpt><trkpt lat="43.191393424477624" lon="11.74424463575294"><ele>275.6666666666667</ele><time>2026-05-03T10:17:21.998Z</time></trkpt><trkpt lat="43.19126168302622" lon="11.744049085266353"><ele>275.33333333333337</ele><time>2026-05-03T10:17:22.998Z</time></trkpt><trkpt lat="43.191135939896306" lon="11.743854043460413"><ele>275.0</ele><time>2026-05-03T10:17:23.998Z</time></trkpt><trkpt lat="43.1910108667897" lon="11.743665263963942"><ele>275.6666666666667</ele><time>2026-05-03T10:17:24.998Z</time></trkpt><trkpt lat="43.19088820776679" lon="11.74350810934422"><ele>276.3333333333333</ele><time>2026-05-03T10:17:25.998Z</time></trkpt><trkpt lat="43.19076308433268" lon="11.74338337387569"><ele>277.0</ele><time>2026-05-03T10:17:26.998Z</time></trkpt><trkpt lat="43.190632159788784" lon="11.743268077219845"><ele>277.0</ele><time>2026-05-03T10:17:27.998Z</time></trkpt><trkpt lat="43.190478358215145" lon="11.743162446192889"><ele>277.0</ele><time>2026-05-03T10:17:28.998Z</time></trkpt><trkpt lat="43.19030553350538" lon="11.743079793053136"><ele>277.0</ele><time>2026-05-03T10:17:29.998Z</time></trkpt><trkpt lat="43.19012301851234" lon="11.742994010197902"><ele>277.0</ele><time>2026-05-03T10:17:30.998Z</time></trkpt><trkpt lat="43.18993536078266" lon="11.742914170038336"><ele>277.0</ele><time>2026-05-03T10:17:31.999Z</time></trkpt><trkpt lat="43.18974714365105" lon="11.74283463592626"><ele>277.0</ele><time>2026-05-03T10:17:32.999Z</time></trkpt><trkpt lat="43.189559557186335" lon="11.742745596119411"><ele>277.66666666666663</ele><time>2026-05-03T10:17:33.999Z</time></trkpt><trkpt lat="43.189376551767594" lon="11.74266271464957"><ele>278.3333333333333</ele><time>2026-05-03T10:17:34.999Z</time></trkpt><trkpt lat="43.18919936021274" lon="11.74258213615613"><ele>279.0</ele><time>2026-05-03T10:17:35.999Z</time></trkpt><trkpt lat="43.18904622668252" lon="11.742491130127863"><ele>278.75</ele><time>2026-05-03T10:17:36.999Z</time></trkpt><trkpt lat="43.18894076519371" lon="11.742355815785755"><ele>278.5</ele><time>2026-05-03T10:17:37.999Z</time></trkpt><trkpt lat="43.18884248813492" lon="11.742223210238075"><ele>278.25</ele><time>2026-05-03T10:17:38.999Z</time></trkpt><trkpt lat="43.188778050681236" lon="11.742041271652631"><ele>278.0</ele><time>2026-05-03T10:17:39.999Z</time></trkpt><trkpt lat="43.18868706635793" lon="11.741845681992556"><ele>278.0</ele><time>2026-05-03T10:17:40.999Z</time></trkpt><trkpt lat="43.18860974134971" lon="11.741612748725215"><ele>278.0</ele><time>2026-05-03T10:17:41.999Z</time></trkpt><trkpt lat="43.188526429089684" lon="11.741374248238035"><ele>278.0</ele><time>2026-05-03T10:17:42.999Z</time></trkpt><trkpt lat="43.18843058439237" lon="11.741136360920773"><ele>278.0</ele><time>2026-05-03T10:17:43.999Z</time></trkpt><trkpt lat="43.18834433118004" lon="11.740919081414425"><ele>278.0</ele><time>2026-05-03T10:17:44.999Z</time></trkpt><trkpt lat="43.18826089809011" lon="11.740731734551012"><ele>278.0</ele><time>2026-05-03T10:17:45.999Z</time></trkpt><trkpt lat="43.188158395828374" lon="11.740555552190537"><ele>278.0</ele><time>2026-05-03T10:17:46.999Z</time></trkpt><trkpt lat="43.18801471757541" lon="11.740384943477707"><ele>278.0</ele><time>2026-05-03T10:17:47.999Z</time></trkpt><trkpt lat="43.18785780287524" lon="11.740209472015877"><ele>278.0</ele><time>2026-05-03T10:17:48.999Z</time></trkpt><trkpt lat="43.187697055532816" lon="11.740027152293395"><ele>279.33333333333337</ele><time>2026-05-03T10:17:49.999Z</time></trkpt><trkpt lat="43.187537928003856" lon="11.739829668772163"><ele>280.6666666666667</ele><time>2026-05-03T10:17:50.999Z</time></trkpt><trkpt lat="43.18737576008618" lon="11.739631032062674"><ele>282.0</ele><time>2026-05-03T10:17:51.999Z</time></trkpt><trkpt lat="43.18721682227211" lon="11.73944078516481"><ele>282.3333333333333</ele><time>2026-05-03T10:17:52.999Z</time></trkpt><trkpt lat="43.18705479379993" lon="11.739251028420806"><ele>282.66666666666663</ele><time>2026-05-03T10:17:53.999Z</time></trkpt><trkpt lat="43.186872633778066" lon="11.739075118424887"><ele>283.0</ele><time>2026-05-03T10:17:54.999Z</time></trkpt><trkpt lat="43.186668749118404" lon="11.738926850275377"><ele>284.3333333333333</ele><time>2026-05-03T10:17:55.999Z</time></trkpt><trkpt lat="43.18646551350498" lon="11.738778721899477"><ele>285.6666666666667</ele><time>2026-05-03T10:17:56.999Z</time></trkpt><trkpt lat="43.1862771436674" lon="11.738627128797527"><ele>287.0</ele><time>2026-05-03T10:17:57.999Z</time></trkpt><trkpt lat="43.186103090391605" lon="11.738490392246634"><ele>287.0</ele><time>2026-05-03T10:17:58.999Z</time></trkpt><trkpt lat="43.18594681194544" lon="11.73835965406492"><ele>287.0</ele><time>2026-05-03T10:17:59.999Z</time></trkpt><trkpt lat="43.185787115129344" lon="11.738247141924703"><ele>287.0</ele><time>2026-05-03T10:18:00.999Z</time></trkpt><trkpt lat="43.18563283310579" lon="11.738127096318854"><ele>287.6666666666667</ele><time>2026-05-03T10:18:01.999Z</time></trkpt><trkpt lat="43.18548890663351" lon="11.73799306684059"><ele>288.3333333333333</ele><time>2026-05-03T10:18:02.999Z</time></trkpt><trkpt lat="43.185354154355835" lon="11.737843421321013"><ele>289.0</ele><time>2026-05-03T10:18:03.999Z</time></trkpt><trkpt lat="43.185247571907055" lon="11.737647433352782"><ele>289.0</ele><time>2026-05-03T10:18:04.999Z</time></trkpt><trkpt lat="43.18514150794537" lon="11.737439575781854"><ele>289.0</ele><time>2026-05-03T10:18:05.999Z</time></trkpt><trkpt lat="43.18505079598838" lon="11.73721125763109"><ele>289.0</ele><time>2026-05-03T10:18:06.999Z</time></trkpt><trkpt lat="43.18496805855195" lon="11.736956111856157"><ele>287.0</ele><time>2026-05-03T10:18:07.999Z</time></trkpt><trkpt lat="43.18487208060772" lon="11.736704012177263"><ele>285.0</ele><time>2026-05-03T10:18:08.999Z</time></trkpt><trkpt lat="43.18479595518157" lon="11.736446718365961"><ele>283.0</ele><time>2026-05-03T10:18:09.999Z</time></trkpt><trkpt lat="43.18475477715444" lon="11.7361937079008"><ele>284.66666666666663</ele><time>2026-05-03T10:18:10.999Z</time></trkpt><trkpt lat="43.18473266530617" lon="11.735968150344691"><ele>286.3333333333333</ele><time>2026-05-03T10:18:11.999Z</time></trkpt><trkpt lat="43.1847479252016" lon="11.735765093323543"><ele>288.0</ele><time>2026-05-03T10:18:12.999Z</time></trkpt><trkpt lat="43.18476599672428" lon="11.735537396971534"><ele>288.0</ele><time>2026-05-03T10:18:13.999Z</time></trkpt><trkpt lat="43.18482545488669" lon="11.735303171183814"><ele>288.0</ele><time>2026-05-03T10:18:14.999Z</time></trkpt><trkpt lat="43.18487680025598" lon="11.735069226774783"><ele>288.0</ele><time>2026-05-03T10:18:15.999Z</time></trkpt><trkpt lat="43.184895812320086" lon="11.734833317861622"><ele>293.3333333333333</ele><time>2026-05-03T10:18:16.999Z</time></trkpt><trkpt lat="43.18487562688256" lon="11.73457638037859"><ele>298.66666666666663</ele><time>2026-05-03T10:18:17.999Z</time></trkpt><trkpt lat="43.18483421635743" lon="11.734299905945658"><ele>304.0</ele><time>2026-05-03T10:18:18.999Z</time></trkpt><trkpt lat="43.184781668506616" lon="11.734010781981677"><ele>304.0</ele><time>2026-05-03T10:18:19.999Z</time></trkpt><trkpt lat="43.184746080442046" lon="11.733721180720565"><ele>304.0</ele><time>2026-05-03T10:18:20.999Z</time></trkpt><trkpt lat="43.18471012108714" lon="11.73343734653089"><ele>304.0</ele><time>2026-05-03T10:18:21.999Z</time></trkpt><trkpt lat="43.18467263716056" lon="11.73315390953432"><ele>305.3333333333333</ele><time>2026-05-03T10:18:22.999Z</time></trkpt><trkpt lat="43.18463685434292" lon="11.732871953840753"><ele>306.6666666666667</ele><time>2026-05-03T10:18:23.999Z</time></trkpt><trkpt lat="43.18459560373661" lon="11.732593523495341"><ele>308.0</ele><time>2026-05-03T10:18:24.999Z</time></trkpt><trkpt lat="43.18455849455492" lon="11.732333427827294"><ele>311.0</ele><time>2026-05-03T10:18:25.999Z</time></trkpt><trkpt lat="43.18452098713762" lon="11.732089961946699"><ele>314.0</ele><time>2026-05-03T10:18:26.999Z</time></trkpt><trkpt lat="43.18449368663881" lon="11.731885981113175"><ele>317.0</ele><time>2026-05-03T10:18:27.999Z</time></trkpt><trkpt lat="43.18445226419857" lon="11.731683098344321"><ele>319.6666666666667</ele><time>2026-05-03T10:18:28.999Z</time></trkpt><trkpt lat="43.184377205048115" lon="11.731467894485462"><ele>322.3333333333333</ele><time>2026-05-03T10:18:29.999Z</time></trkpt><trkpt lat="43.18428768173008" lon="11.73124000162348"><ele>325.0</ele><time>2026-05-03T10:18:30.999Z</time></trkpt><trkpt lat="43.18418884348509" lon="11.73101616284941"><ele>326.3333333333333</ele><time>2026-05-03T10:18:31.999Z</time></trkpt><trkpt lat="43.184100225432545" lon="11.73082268879518"><ele>327.6666666666667</ele><time>2026-05-03T10:18:32.999Z</time></trkpt><trkpt lat="43.184045274504314" lon="11.73063523673421"><ele>329.0</ele><time>2026-05-03T10:18:33.999Z</time></trkpt><trkpt lat="43.18402215884828" lon="11.730437466688606"><ele>329.33333333333337</ele><time>2026-05-03T10:18:34.999Z</time></trkpt><trkpt lat="43.18403770960568" lon="11.730218613882341"><ele>329.6666666666667</ele><time>2026-05-03T10:18:35.999Z</time></trkpt><trkpt lat="43.18407562033117" lon="11.729992102724022"><ele>330.0</ele><time>2026-05-03T10:18:36.999Z</time></trkpt><trkpt lat="43.184109708011626" lon="11.72974290707402"><ele>330.0</ele><time>2026-05-03T10:18:37.999Z</time></trkpt><trkpt lat="43.18417058146378" lon="11.729517483244628"><ele>330.0</ele><time>2026-05-03T10:18:38.999Z</time></trkpt><trkpt lat="43.18421304815617" lon="11.729317940147002"><ele>330.0</ele><time>2026-05-03T10:18:39.999Z</time></trkpt><trkpt lat="43.184225691423265" lon="11.7291366906805"><ele>330.25</ele><time>2026-05-03T10:18:40.999Z</time></trkpt><trkpt lat="43.18420372746681" lon="11.728940634810867"><ele>330.5</ele><time>2026-05-03T10:18:41.999Z</time></trkpt><trkpt lat="43.1841489358576" lon="11.728747984073033"><ele>330.75</ele><time>2026-05-03T10:18:42.999Z</time></trkpt><trkpt lat="43.18406982275114" lon="11.728578032712727"><ele>331.0</ele><time>2026-05-03T10:18:43.999Z</time></trkpt><trkpt lat="43.1839631690873" lon="11.72845236052419"><ele>331.0</ele><time>2026-05-03T10:18:44.999Z</time></trkpt><trkpt lat="43.18382544825876" lon="11.728336331624401"><ele>331.0</ele><time>2026-05-03T10:18:45.999Z</time></trkpt><trkpt lat="43.18367228728737" lon="11.728223299805396"><ele>331.0</ele><time>2026-05-03T10:18:46.999Z</time></trkpt><trkpt lat="43.1835444114888" lon="11.728085744904407"><ele>331.0</ele><time>2026-05-03T10:18:47.999Z</time></trkpt><trkpt lat="43.183435049044704" lon="11.72796537780187"><ele>331.0</ele><time>2026-05-03T10:18:48.999Z</time></trkpt><trkpt lat="43.18335046044248" lon="11.727835571320337"><ele>331.0</ele><time>2026-05-03T10:18:49.999Z</time></trkpt><trkpt lat="43.18329481632396" lon="11.727677540442665"><ele>331.0</ele><time>2026-05-03T10:18:50.999Z</time></trkpt><trkpt lat="43.183269332860085" lon="11.727467682965164"><ele>332.3333333333333</ele><time>2026-05-03T10:18:51.999Z</time></trkpt><trkpt lat="43.18323202183807" lon="11.72722659431436"><ele>333.6666666666667</ele><time>2026-05-03T10:18:52.999Z</time></trkpt><trkpt lat="43.183220119500945" lon="11.726975606164778"><ele>335.0</ele><time>2026-05-03T10:18:53.999Z</time></trkpt><trkpt lat="43.18319139941848" lon="11.726742920459815"><ele>333.6666666666667</ele><time>2026-05-03T10:18:54.999Z</time></trkpt><trkpt lat="43.18312504808911" lon="11.72650219323068"><ele>332.3333333333333</ele><time>2026-05-03T10:18:55.999Z</time></trkpt><trkpt lat="43.183032615437206" lon="11.726259425174156"><ele>331.0</ele><time>2026-05-03T10:18:56.999Z</time></trkpt><trkpt lat="43.182928095647384" lon="11.726015931762669"><ele>333.66666666666663</ele><time>2026-05-03T10:18:57.999Z</time></trkpt><trkpt lat="43.18281970115055" lon="11.725781455201853"><ele>336.3333333333333</ele><time>2026-05-03T10:18:58.999Z</time></trkpt><trkpt lat="43.18273201749064" lon="11.725552430730694"><ele>339.0</ele><time>2026-05-03T10:18:59.999Z</time></trkpt><trkpt lat="43.18264652902415" lon="11.725328888194388"><ele>340.6666666666667</ele><time>2026-05-03T10:19:00.999Z</time></trkpt><trkpt lat="43.182565308939" lon="11.72510239421622"><ele>342.33333333333337</ele><time>2026-05-03T10:19:01.999Z</time></trkpt><trkpt lat="43.18249669280429" lon="11.72487826815557"><ele>344.0</ele><time>2026-05-03T10:19:02.999Z</time></trkpt><trkpt lat="43.182453846420785" lon="11.724661013259672"><ele>344.0</ele><time>2026-05-03T10:19:03.999Z</time></trkpt><trkpt lat="43.182440465860644" lon="11.724426758967295"><ele>344.0</ele><time>2026-05-03T10:19:04.999Z</time></trkpt><trkpt lat="43.182439607396084" lon="11.724180276351538"><ele>344.0</ele><time>2026-05-03T10:19:05.999Z</time></trkpt><trkpt lat="43.18243534776108" lon="11.723929866743026"><ele>343.33333333333337</ele><time>2026-05-03T10:19:06.999Z</time></trkpt><trkpt lat="43.18243043462644" lon="11.723690157301895"><ele>342.6666666666667</ele><time>2026-05-03T10:19:07.999Z</time></trkpt><trkpt lat="43.18241951623765" lon="11.723465301802806"><ele>342.0</ele><time>2026-05-03T10:19:08.999Z</time></trkpt><trkpt lat="43.18239682696666" lon="11.723248621852772"><ele>341.0</ele><time>2026-05-03T10:19:09.999Z</time></trkpt><trkpt lat="43.18234748472852" lon="11.72302571444344"><ele>340.0</ele><time>2026-05-03T10:19:10.999Z</time></trkpt><trkpt lat="43.18226994171405" lon="11.722799397166476"><ele>339.0</ele><time>2026-05-03T10:19:11.999Z</time></trkpt><trkpt lat="43.18216218508445" lon="11.722579570020823"><ele>338.0</ele><time>2026-05-03T10:19:12.999Z</time></trkpt><trkpt lat="43.182026683594394" lon="11.722362471984642"><ele>337.0</ele><time>2026-05-03T10:19:13.999Z</time></trkpt><trkpt lat="43.18188765370451" lon="11.722132789045594"><ele>336.0</ele><time>2026-05-03T10:19:14.999Z</time></trkpt><trkpt lat="43.181750826307294" lon="11.721890805168233"><ele>334.0</ele><time>2026-05-03T10:19:15.999Z</time></trkpt><trkpt lat="43.1816149097114" lon="11.721640149336578"><ele>332.0</ele><time>2026-05-03T10:19:16.999Z</time></trkpt><trkpt lat="43.18147971211833" lon="11.721392071819757"><ele>330.33333333333337</ele><time>2026-05-03T10:19:17.999Z</time></trkpt><trkpt lat="43.18133506518099" lon="11.721149918241457"><ele>328.6666666666667</ele><time>2026-05-03T10:19:18.999Z</time></trkpt><trkpt lat="43.18119808675766" lon="11.720913104554755"><ele>327.0</ele><time>2026-05-03T10:19:19.999Z</time></trkpt><trkpt lat="43.18107056327818" lon="11.720673009744262"><ele>330.6666666666667</ele><time>2026-05-03T10:19:20.999Z</time></trkpt><trkpt lat="43.180948115414516" lon="11.720448423170254"><ele>334.33333333333337</ele><time>2026-05-03T10:19:21.999Z</time></trkpt><trkpt lat="43.18083452728436" lon="11.720236128076714"><ele>338.0</ele><time>2026-05-03T10:19:22.999Z</time></trkpt><trkpt lat="43.180726183259" lon="11.720034093019002"><ele>339.6666666666667</ele><time>2026-05-03T10:19:23.999Z</time></trkpt><trkpt lat="43.18061434067945" lon="11.719841923075972"><ele>341.3333333333333</ele><time>2026-05-03T10:19:24.999Z</time></trkpt><trkpt lat="43.1805083907613" lon="11.71965076442419"><ele>343.0</ele><time>2026-05-03T10:19:25.999Z</time></trkpt><trkpt lat="43.180401499349124" lon="11.71946699053879"><ele>346.3333333333333</ele><time>2026-05-03T10:19:26.999Z</time></trkpt><trkpt lat="43.180290325048226" lon="11.719292715243883"><ele>349.6666666666667</ele><time>2026-05-03T10:19:27.999Z</time></trkpt><trkpt lat="43.18016644691918" lon="11.71911741337447"><ele>353.0</ele><time>2026-05-03T10:19:28.999Z</time></trkpt><trkpt lat="43.180028362738284" lon="11.718941708145755"><ele>353.0</ele><time>2026-05-03T10:19:29.999Z</time></trkpt><trkpt lat="43.17987385830491" lon="11.71878208126533"><ele>353.0</ele><time>2026-05-03T10:19:30.999Z</time></trkpt><trkpt lat="43.17970576885479" lon="11.718637167349344"><ele>353.0</ele><time>2026-05-03T10:19:31.999Z</time></trkpt><trkpt lat="43.17955256357038" lon="11.718477162459758"><ele>352.0</ele><time>2026-05-03T10:19:32.999Z</time></trkpt><trkpt lat="43.17940556595918" lon="11.718282884000152"><ele>351.0</ele><time>2026-05-03T10:19:33.999Z</time></trkpt><trkpt lat="43.17926406864102" lon="11.718057106837861"><ele>350.0</ele><time>2026-05-03T10:19:34.999Z</time></trkpt><trkpt lat="43.17912239167388" lon="11.717805358862613"><ele>351.5</ele><time>2026-05-03T10:19:35.999Z</time></trkpt><trkpt lat="43.17898074042614" lon="11.71753162162788"><ele>353.0</ele><time>2026-05-03T10:19:36.999Z</time></trkpt><trkpt lat="43.17884543303176" lon="11.717267393297751"><ele>353.0</ele><time>2026-05-03T10:19:37.999Z</time></trkpt><trkpt lat="43.17870614984339" lon="11.717028146473753"><ele>353.0</ele><time>2026-05-03T10:19:38.999Z</time></trkpt><trkpt lat="43.178580884349785" lon="11.716804448640284"><ele>353.0</ele><time>2026-05-03T10:19:39.999Z</time></trkpt><trkpt lat="43.17846862215634" lon="11.716602212952278"><ele>355.6666666666667</ele><time>2026-05-03T10:19:41Z</time></trkpt><trkpt lat="43.178360927150514" lon="11.71642042207084"><ele>358.3333333333333</ele><time>2026-05-03T10:19:42Z</time></trkpt><trkpt lat="43.17824232802296" lon="11.716261799750708"><ele>361.0</ele><time>2026-05-03T10:19:43Z</time></trkpt><trkpt lat="43.17810649649798" lon="11.716133273127683"><ele>363.0</ele><time>2026-05-03T10:19:44Z</time></trkpt><trkpt lat="43.17796873815517" lon="11.716043131919127"><ele>365.0</ele><time>2026-05-03T10:19:45Z</time></trkpt><trkpt lat="43.17782807832379" lon="11.716012101947172"><ele>367.0</ele><time>2026-05-03T10:19:46Z</time></trkpt><trkpt lat="43.17768047181083" lon="11.716041627125017"><ele>369.0</ele><time>2026-05-03T10:19:47Z</time></trkpt><trkpt lat="43.17752931857593" lon="11.716119387144277"><ele>369.0</ele><time>2026-05-03T10:19:48Z</time></trkpt><trkpt lat="43.17737943780337" lon="11.716234887071298"><ele>369.0</ele><time>2026-05-03T10:19:49Z</time></trkpt><trkpt lat="43.177249111031614" lon="11.716315091906491"><ele>369.0</ele><time>2026-05-03T10:19:50Z</time></trkpt><trkpt lat="43.17711421699419" lon="11.716331776433217"><ele>371.6666666666667</ele><time>2026-05-03T10:19:51Z</time></trkpt><trkpt lat="43.17696663586006" lon="11.716287993374529"><ele>374.33333333333337</ele><time>2026-05-03T10:19:52Z</time></trkpt><trkpt lat="43.1768263008027" lon="11.71620487916967"><ele>377.0</ele><time>2026-05-03T10:19:53Z</time></trkpt><trkpt lat="43.17666292181598" lon="11.716098247883384"><ele>381.6666666666667</ele><time>2026-05-03T10:19:54Z</time></trkpt><trkpt lat="43.17648277547525" lon="11.715990319118516"><ele>386.33333333333337</ele><time>2026-05-03T10:19:55Z</time></trkpt><trkpt lat="43.176295715388676" lon="11.715865215407762"><ele>391.0</ele><time>2026-05-03T10:19:56Z</time></trkpt><trkpt lat="43.17609763832415" lon="11.715741484465083"><ele>391.0</ele><time>2026-05-03T10:19:57Z</time></trkpt><trkpt lat="43.17590577667694" lon="11.715609074415589"><ele>391.0</ele><time>2026-05-03T10:19:58Z</time></trkpt><trkpt lat="43.17574537668822" lon="11.715476136265035"><ele>391.0</ele><time>2026-05-03T10:19:59Z</time></trkpt><trkpt lat="43.17559397378726" lon="11.71531729849904"><ele>394.6666666666667</ele><time>2026-05-03T10:20:00Z</time></trkpt><trkpt lat="43.17547291423272" lon="11.715169775761716"><ele>398.33333333333337</ele><time>2026-05-03T10:20:01Z</time></trkpt><trkpt lat="43.17530446620214" lon="11.714962945934213"><ele>402.0</ele><time>2026-05-03T10:20:02Z</time></trkpt><trkpt lat="43.17512474879417" lon="11.714742278903465"><ele>402.0</ele><time>2026-05-03T10:20:03Z</time></trkpt><trkpt lat="43.1749409969633" lon="11.714535043245961"><ele>402.0</ele><time>2026-05-03T10:20:04Z</time></trkpt><trkpt lat="43.17478877465906" lon="11.714340155423818"><ele>402.0</ele><time>2026-05-03T10:20:05Z</time></trkpt><trkpt lat="43.17465313269196" lon="11.714170404666806"><ele>406.0</ele><time>2026-05-03T10:20:06Z</time></trkpt><trkpt lat="43.17453202081574" lon="11.714021354571553"><ele>410.0</ele><time>2026-05-03T10:20:07Z</time></trkpt><trkpt lat="43.17442246032006" lon="11.713900596764764"><ele>414.0</ele><time>2026-05-03T10:20:08Z</time></trkpt><trkpt lat="43.17431573285467" lon="11.71381856959914"><ele>418.0</ele><time>2026-05-03T10:20:09Z</time></trkpt><trkpt lat="43.17418852405835" lon="11.71378613700657"><ele>418.0</ele><time>2026-05-03T10:20:10Z</time></trkpt><trkpt lat="43.174062136934396" lon="11.713807443404818"><ele>418.0</ele><time>2026-05-03T10:20:11Z</time></trkpt><trkpt lat="43.17392642405368" lon="11.713914144496641"><ele>418.0</ele><time>2026-05-03T10:20:12Z</time></trkpt><trkpt lat="43.17380902161047" lon="11.714068587109463"><ele>418.0</ele><time>2026-05-03T10:20:13Z</time></trkpt><trkpt lat="43.17370377847335" lon="11.714274822554522"><ele>421.6666666666667</ele><time>2026-05-03T10:20:14Z</time></trkpt><trkpt lat="43.17362098794142" lon="11.714481383179645"><ele>425.33333333333337</ele><time>2026-05-03T10:20:15Z</time></trkpt><trkpt lat="43.17351071801549" lon="11.714616663166373"><ele>429.0</ele><time>2026-05-03T10:20:16Z</time></trkpt><trkpt lat="43.17337822261274" lon="11.714673844810536"><ele>429.0</ele><time>2026-05-03T10:20:17Z</time></trkpt><trkpt lat="43.17326126985818" lon="11.714657921432522"><ele>429.0</ele><time>2026-05-03T10:20:18Z</time></trkpt><trkpt lat="43.17313819891867" lon="11.71461392628279"><ele>429.0</ele><time>2026-05-03T10:20:19Z</time></trkpt><trkpt lat="43.17303764924895" lon="11.714503657486375"><ele>429.0</ele><time>2026-05-03T10:20:20Z</time></trkpt><trkpt lat="43.17294373563721" lon="11.714344267063861"><ele>430.0</ele><time>2026-05-03T10:20:21Z</time></trkpt><trkpt lat="43.17287300669889" lon="11.714135245637173"><ele>431.0</ele><time>2026-05-03T10:20:22Z</time></trkpt><trkpt lat="43.17278188345888" lon="11.713888738969567"><ele>432.0</ele><time>2026-05-03T10:20:23Z</time></trkpt><trkpt lat="43.17267739149112" lon="11.71361919322288"><ele>435.33333333333337</ele><time>2026-05-03T10:20:24Z</time></trkpt><trkpt lat="43.172602381160985" lon="11.713409279754275"><ele>438.6666666666667</ele><time>2026-05-03T10:20:25Z</time></trkpt><trkpt lat="43.17253283488965" lon="11.713220249805298"><ele>442.0</ele><time>2026-05-03T10:20:26Z</time></trkpt><trkpt lat="43.172462146068256" lon="11.713033404286813"><ele>442.0</ele><time>2026-05-03T10:20:27Z</time></trkpt><trkpt lat="43.17239168678282" lon="11.71282511715139"><ele>442.0</ele><time>2026-05-03T10:20:28Z</time></trkpt><trkpt lat="43.17230522462084" lon="11.712582094861787"><ele>442.0</ele><time>2026-05-03T10:20:29Z</time></trkpt><trkpt lat="43.172231792032846" lon="11.712305384432796"><ele>439.6666666666667</ele><time>2026-05-03T10:20:30Z</time></trkpt><trkpt lat="43.172150365715105" lon="11.712052549753727"><ele>437.33333333333337</ele><time>2026-05-03T10:20:31Z</time></trkpt><trkpt lat="43.1720667144296" lon="11.7118328856582"><ele>435.0</ele><time>2026-05-03T10:20:32Z</time></trkpt><trkpt lat="43.17199951104358" lon="11.711614441923242"><ele>435.0</ele><time>2026-05-03T10:20:33Z</time></trkpt><trkpt lat="43.171938386428664" lon="11.711424381376476"><ele>435.0</ele><time>2026-05-03T10:20:34Z</time></trkpt><trkpt lat="43.17187836776598" lon="11.711248924260266"><ele>435.0</ele><time>2026-05-03T10:20:35Z</time></trkpt><trkpt lat="43.1718237022218" lon="11.711081062638101"><ele>435.0</ele><time>2026-05-03T10:20:36Z</time></trkpt><trkpt lat="43.17175806700173" lon="11.710917451954874"><ele>437.0</ele><time>2026-05-03T10:20:37Z</time></trkpt><trkpt lat="43.17167701988563" lon="11.710744181575224"><ele>439.0</ele><time>2026-05-03T10:20:38Z</time></trkpt><trkpt lat="43.17157949909609" lon="11.710574954824997"><ele>441.0</ele><time>2026-05-03T10:20:39Z</time></trkpt><trkpt lat="43.17147143649084" lon="11.710405987844183"><ele>441.0</ele><time>2026-05-03T10:20:40Z</time></trkpt><trkpt lat="43.17135613962023" lon="11.710243066630518"><ele>441.0</ele><time>2026-05-03T10:20:41Z</time></trkpt><trkpt lat="43.171230303455005" lon="11.710099307534653"><ele>441.0</ele><time>2026-05-03T10:20:42Z</time></trkpt><trkpt lat="43.17110614468822" lon="11.709978391456355"><ele>445.0</ele><time>2026-05-03T10:20:43Z</time></trkpt><trkpt lat="43.17097515270979" lon="11.709875229659316"><ele>449.0</ele><time>2026-05-03T10:20:44Z</time></trkpt><trkpt lat="43.17082977736163" lon="11.709774674643816"><ele>453.0</ele><time>2026-05-03T10:20:45Z</time></trkpt><trkpt lat="43.17070026647825" lon="11.709666195975553"><ele>451.33333333333337</ele><time>2026-05-03T10:20:46Z</time></trkpt><trkpt lat="43.170569818046374" lon="11.709561828287686"><ele>449.6666666666667</ele><time>2026-05-03T10:20:47Z</time></trkpt><trkpt lat="43.17041703978333" lon="11.709417745738008"><ele>448.0</ele><time>2026-05-03T10:20:48Z</time></trkpt><trkpt lat="43.170228582568605" lon="11.709263139313641"><ele>448.0</ele><time>2026-05-03T10:20:49Z</time></trkpt><trkpt lat="43.17001451380809" lon="11.709087521726925"><ele>448.0</ele><time>2026-05-03T10:20:50Z</time></trkpt><trkpt lat="43.16979177886402" lon="11.708912773430551"><ele>444.0</ele><time>2026-05-03T10:20:51Z</time></trkpt><trkpt lat="43.169585900964336" lon="11.708743448016046"><ele>440.0</ele><time>2026-05-03T10:20:52Z</time></trkpt><trkpt lat="43.16938720210501" lon="11.708584208322554"><ele>440.66666666666663</ele><time>2026-05-03T10:20:53Z</time></trkpt><trkpt lat="43.169203606240664" lon="11.708432155510419"><ele>441.33333333333337</ele><time>2026-05-03T10:20:54Z</time></trkpt><trkpt lat="43.16903619958198" lon="11.708287138350682"><ele>442.0</ele><time>2026-05-03T10:20:55Z</time></trkpt><trkpt lat="43.168884780084525" lon="11.708163993602483"><ele>442.0</ele><time>2026-05-03T10:20:56Z</time></trkpt><trkpt lat="43.168739016682785" lon="11.708053620610126"><ele>442.0</ele><time>2026-05-03T10:20:57Z</time></trkpt><trkpt lat="43.16857463443073" lon="11.707974979675223"><ele>442.0</ele><time>2026-05-03T10:20:58Z</time></trkpt><trkpt lat="43.16839022716908" lon="11.70793080346849"><ele>444.5</ele><time>2026-05-03T10:20:59Z</time></trkpt><trkpt lat="43.16817283032359" lon="11.707938594330091"><ele>447.0</ele><time>2026-05-03T10:21:00Z</time></trkpt><trkpt lat="43.16792841980982" lon="11.707978294284118"><ele>447.0</ele><time>2026-05-03T10:21:01Z</time></trkpt><trkpt lat="43.167668288865755" lon="11.708027916024635"><ele>447.0</ele><time>2026-05-03T10:21:02Z</time></trkpt><trkpt lat="43.16741464467824" lon="11.708067965393"><ele>450.33333333333337</ele><time>2026-05-03T10:21:03Z</time></trkpt><trkpt lat="43.16719134769561" lon="11.708082340261104"><ele>453.6666666666667</ele><time>2026-05-03T10:21:04Z</time></trkpt><trkpt lat="43.16700741916544" lon="11.708094030128175"><ele>457.0</ele><time>2026-05-03T10:21:05Z</time></trkpt><trkpt lat="43.16687500999861" lon="11.70805919495461"><ele>457.0</ele><time>2026-05-03T10:21:06Z</time></trkpt><trkpt lat="43.166756340627124" lon="11.708017517155303"><ele>457.0</ele><time>2026-05-03T10:21:07Z</time></trkpt><trkpt lat="43.16664361422815" lon="11.707952414298134"><ele>457.0</ele><time>2026-05-03T10:21:08Z</time></trkpt><trkpt lat="43.16659395138686" lon="11.707780399628609"><ele>457.0</ele><time>2026-05-03T10:21:09Z</time></trkpt><trkpt lat="43.16655074629601" lon="11.707584660977021"><ele>462.0</ele><time>2026-05-03T10:21:10Z</time></trkpt><trkpt lat="43.16648545585374" lon="11.70737589340853"><ele>467.0</ele><time>2026-05-03T10:21:11Z</time></trkpt><trkpt lat="43.16644122297523" lon="11.707169480776207"><ele>472.0</ele><time>2026-05-03T10:21:12Z</time></trkpt><trkpt lat="43.166338372108925" lon="11.707011851592217"><ele>472.6666666666667</ele><time>2026-05-03T10:21:13Z</time></trkpt><trkpt lat="43.16620084598335" lon="11.70688087910037"><ele>473.33333333333337</ele><time>2026-05-03T10:21:14Z</time></trkpt><trkpt lat="43.16602774815922" lon="11.706767381751991"><ele>474.0</ele><time>2026-05-03T10:21:15Z</time></trkpt><trkpt lat="43.16584510797402" lon="11.70668324822349"><ele>477.0</ele><time>2026-05-03T10:21:16Z</time></trkpt><trkpt lat="43.16565423319044" lon="11.706641562325741"><ele>480.0</ele><time>2026-05-03T10:21:17Z</time></trkpt><trkpt lat="43.165475128973355" lon="11.70664092689309"><ele>483.0</ele><time>2026-05-03T10:21:18Z</time></trkpt><trkpt lat="43.16533227008931" lon="11.706638601343041"><ele>483.0</ele><time>2026-05-03T10:21:19Z</time></trkpt><trkpt lat="43.165216658715906" lon="11.706617569017244"><ele>483.0</ele><time>2026-05-03T10:21:20Z</time></trkpt><trkpt lat="43.16511730992867" lon="11.706535360402206"><ele>483.0</ele><time>2026-05-03T10:21:21Z</time></trkpt><trkpt lat="43.16501375156428" lon="11.706428508405278"><ele>483.0</ele><time>2026-05-03T10:21:22.001Z</time></trkpt><trkpt lat="43.16490320937923" lon="11.706293627549819"><ele>483.0</ele><time>2026-05-03T10:21:23.001Z</time></trkpt><trkpt lat="43.16477110110216" lon="11.706150247893472"><ele>483.0</ele><time>2026-05-03T10:21:24.001Z</time></trkpt><trkpt lat="43.16464320126073" lon="11.705988878642597"><ele>483.0</ele><time>2026-05-03T10:21:25.001Z</time></trkpt><trkpt lat="43.164515545613234" lon="11.705833632752421"><ele>483.0</ele><time>2026-05-03T10:21:26.001Z</time></trkpt><trkpt lat="43.164380133826434" lon="11.705686820921967"><ele>483.0</ele><time>2026-05-03T10:21:27.001Z</time></trkpt><trkpt lat="43.16423059643445" lon="11.705551313179868"><ele>483.0</ele><time>2026-05-03T10:21:28.001Z</time></trkpt><trkpt lat="43.16406752190192" lon="11.70543358115105"><ele>483.33333333333337</ele><time>2026-05-03T10:21:29.001Z</time></trkpt><trkpt lat="43.16389087067596" lon="11.705341428037766"><ele>483.6666666666667</ele><time>2026-05-03T10:21:30.001Z</time></trkpt><trkpt lat="43.16370661447305" lon="11.705267049289523"><ele>484.0</ele><time>2026-05-03T10:21:31.001Z</time></trkpt><trkpt lat="43.16351117212084" lon="11.705207780234103"><ele>484.0</ele><time>2026-05-03T10:21:32.001Z</time></trkpt><trkpt lat="43.16331975156038" lon="11.705156161711914"><ele>484.0</ele><time>2026-05-03T10:21:33.001Z</time></trkpt><trkpt lat="43.163137677542316" lon="11.705115579477042"><ele>484.0</ele><time>2026-05-03T10:21:34.001Z</time></trkpt><trkpt lat="43.16298151905355" lon="11.705054290907892"><ele>487.0</ele><time>2026-05-03T10:21:35.001Z</time></trkpt><trkpt lat="43.16284140089595" lon="11.704964494442212"><ele>490.0</ele><time>2026-05-03T10:21:36.001Z</time></trkpt><trkpt lat="43.16271359396974" lon="11.704832802854249"><ele>493.0</ele><time>2026-05-03T10:21:37.001Z</time></trkpt><trkpt lat="43.16260042281808" lon="11.70466729810428"><ele>493.0</ele><time>2026-05-03T10:21:38.001Z</time></trkpt><trkpt lat="43.162506659820394" lon="11.704459514852736"><ele>493.0</ele><time>2026-05-03T10:21:39.001Z</time></trkpt><trkpt lat="43.16242297085607" lon="11.704222751211125"><ele>493.0</ele><time>2026-05-03T10:21:40Z</time></trkpt><trkpt lat="43.16232291129691" lon="11.70398356010729"><ele>495.6666666666667</ele><time>2026-05-03T10:21:41Z</time></trkpt><trkpt lat="43.16220979240627" lon="11.703752742631917"><ele>498.33333333333337</ele><time>2026-05-03T10:21:42Z</time></trkpt><trkpt lat="43.16206516595338" lon="11.703531222212765"><ele>501.0</ele><time>2026-05-03T10:21:43Z</time></trkpt><trkpt lat="43.1618687195049" lon="11.703305256139284"><ele>501.0</ele><time>2026-05-03T10:21:44Z</time></trkpt><trkpt lat="43.1616576697759" lon="11.703086361147184"><ele>501.0</ele><time>2026-05-03T10:21:45Z</time></trkpt><trkpt lat="43.161454912510855" lon="11.70286145821982"><ele>501.0</ele><time>2026-05-03T10:21:46Z</time></trkpt><trkpt lat="43.1612440772386" lon="11.702621764312118"><ele>501.0</ele><time>2026-05-03T10:21:47Z</time></trkpt><trkpt lat="43.16103863331571" lon="11.702380584413524"><ele>501.0</ele><time>2026-05-03T10:21:48Z</time></trkpt><trkpt lat="43.16084379789854" lon="11.702157338722548"><ele>501.0</ele><time>2026-05-03T10:21:49Z</time></trkpt><trkpt lat="43.16066958324526" lon="11.701957754251339"><ele>502.33333333333337</ele><time>2026-05-03T10:21:50Z</time></trkpt><trkpt lat="43.16050859271474" lon="11.701773356478613"><ele>503.6666666666667</ele><time>2026-05-03T10:21:51Z</time></trkpt><trkpt lat="43.1603565067351" lon="11.70160786064138"><ele>505.0</ele><time>2026-05-03T10:21:52Z</time></trkpt><trkpt lat="43.16021949884696" lon="11.701452632199425"><ele>505.0</ele><time>2026-05-03T10:21:53Z</time></trkpt><trkpt lat="43.16009528646628" lon="11.701299835013769"><ele>505.0</ele><time>2026-05-03T10:21:54Z</time></trkpt><trkpt lat="43.15996959923351" lon="11.701156469517047"><ele>505.0</ele><time>2026-05-03T10:21:55Z</time></trkpt><trkpt lat="43.159840748335235" lon="11.70101441375442"><ele>507.0</ele><time>2026-05-03T10:21:56Z</time></trkpt><trkpt lat="43.15971397759267" lon="11.70086826624192"><ele>509.0</ele><time>2026-05-03T10:21:57Z</time></trkpt><trkpt lat="43.15959517571727" lon="11.700718852245897"><ele>511.0</ele><time>2026-05-03T10:21:58Z</time></trkpt><trkpt lat="43.1594847006497" lon="11.700590463679408"><ele>511.0</ele><time>2026-05-03T10:21:59Z</time></trkpt><trkpt lat="43.159386837037104" lon="11.700491891362633"><ele>511.0</ele><time>2026-05-03T10:22:00Z</time></trkpt><trkpt lat="43.15930507147275" lon="11.700406838089373"><ele>511.0</ele><time>2026-05-03T10:22:01Z</time></trkpt><trkpt lat="43.15925279984171" lon="11.700338344818615"><ele>511.0</ele><time>2026-05-03T10:22:02Z</time></trkpt><trkpt lat="43.159211191763376" lon="11.70022777207993"><ele>511.0</ele><time>2026-05-03T10:22:04Z</time></trkpt><trkpt lat="43.159279588916256" lon="11.700120269512581"><ele>513.0</ele><time>2026-05-03T10:22:05Z</time></trkpt><trkpt lat="43.15935248589547" lon="11.700109722179995"><ele>515.0</ele><time>2026-05-03T10:22:06Z</time></trkpt><trkpt lat="43.15944555525155" lon="11.70006150155862"><ele>517.0</ele><time>2026-05-03T10:22:07Z</time></trkpt><trkpt lat="43.159545330927685" lon="11.700035559205787"><ele>519.0</ele><time>2026-05-03T10:22:08Z</time></trkpt><trkpt lat="43.15962513331084" lon="11.699960380364104"><ele>521.0</ele><time>2026-05-03T10:22:09Z</time></trkpt><trkpt lat="43.15968130879169" lon="11.699854699918477"><ele>521.0</ele><time>2026-05-03T10:22:10Z</time></trkpt><trkpt lat="43.15972045383173" lon="11.69973722756236"><ele>521.0</ele><time>2026-05-03T10:22:11Z</time></trkpt><trkpt lat="43.15977088462847" lon="11.699611780995989"><ele>521.0</ele><time>2026-05-03T10:22:12Z</time></trkpt><trkpt lat="43.15982112753954" lon="11.69946764893642"><ele>521.0</ele><time>2026-05-03T10:22:13Z</time></trkpt><trkpt lat="43.15986512696072" lon="11.699322264993048"><ele>521.0</ele><time>2026-05-03T10:22:14Z</time></trkpt><trkpt lat="43.15991067973228" lon="11.699196395343192"><ele>520.8</ele><time>2026-05-03T10:22:15Z</time></trkpt><trkpt lat="43.15997713433562" lon="11.699086242472585"><ele>520.6</ele><time>2026-05-03T10:22:16Z</time></trkpt><trkpt lat="43.16002323898868" lon="11.69894861256975"><ele>520.4</ele><time>2026-05-03T10:22:17Z</time></trkpt><trkpt lat="43.16009678218039" lon="11.698832888228127"><ele>520.2</ele><time>2026-05-03T10:22:18Z</time></trkpt><trkpt lat="43.16018386074242" lon="11.698743229282988"><ele>520.0</ele><time>2026-05-03T10:22:19Z</time></trkpt><trkpt lat="43.16027763090925" lon="11.698655534130825"><ele>520.0</ele><time>2026-05-03T10:22:20Z</time></trkpt><trkpt lat="43.16038864471995" lon="11.69859321403419"><ele>520.0</ele><time>2026-05-03T10:22:21Z</time></trkpt><trkpt lat="43.1605122651261" lon="11.698550522671091"><ele>520.0</ele><time>2026-05-03T10:22:22Z</time></trkpt><trkpt lat="43.16063934666099" lon="11.698502884912418"><ele>520.0</ele><time>2026-05-03T10:22:23Z</time></trkpt><trkpt lat="43.160756035540984" lon="11.698444087825457"><ele>519.5</ele><time>2026-05-03T10:22:24Z</time></trkpt><trkpt lat="43.16087357454886" lon="11.69838370874238"><ele>519.0</ele><time>2026-05-03T10:22:25Z</time></trkpt><trkpt lat="43.160996787178675" lon="11.698318871136898"><ele>518.5</ele><time>2026-05-03T10:22:26Z</time></trkpt><trkpt lat="43.161121694365356" lon="11.698254266337084"><ele>518.0</ele><time>2026-05-03T10:22:27.001Z</time></trkpt><trkpt lat="43.16125813318058" lon="11.698179919471501"><ele>518.0</ele><time>2026-05-03T10:22:28.001Z</time></trkpt><trkpt lat="43.1613926582194" lon="11.698084142740628"><ele>518.0</ele><time>2026-05-03T10:22:29.001Z</time></trkpt><trkpt lat="43.16152385456235" lon="11.697976815825726"><ele>518.0</ele><time>2026-05-03T10:22:30.001Z</time></trkpt><trkpt lat="43.1616525549333" lon="11.697892538991582"><ele>518.0</ele><time>2026-05-03T10:22:31.001Z</time></trkpt><trkpt lat="43.16177703577104" lon="11.697811280076467"><ele>518.5</ele><time>2026-05-03T10:22:32.001Z</time></trkpt><trkpt lat="43.1618876556118" lon="11.69772256660563"><ele>519.0</ele><time>2026-05-03T10:22:33.001Z</time></trkpt><trkpt lat="43.16201378911026" lon="11.697650441831506"><ele>519.5</ele><time>2026-05-03T10:22:34.001Z</time></trkpt><trkpt lat="43.16214304788021" lon="11.697580746926862"><ele>520.0</ele><time>2026-05-03T10:22:35.001Z</time></trkpt><trkpt lat="43.162262030698585" lon="11.697532610323883"><ele>516.25</ele><time>2026-05-03T10:22:36.001Z</time></trkpt><trkpt lat="43.16238328478968" lon="11.697501889383554"><ele>512.5</ele><time>2026-05-03T10:22:37.001Z</time></trkpt><trkpt lat="43.162501282140006" lon="11.69747550666375"><ele>508.75</ele><time>2026-05-03T10:22:38.001Z</time></trkpt><trkpt lat="43.16260859919805" lon="11.69743848884374"><ele>505.0</ele><time>2026-05-03T10:22:39.001Z</time></trkpt><trkpt lat="43.16271271011487" lon="11.69737715495782"><ele>505.0</ele><time>2026-05-03T10:22:40.001Z</time></trkpt><trkpt lat="43.162810876655286" lon="11.697280419750134"><ele>505.0</ele><time>2026-05-03T10:22:41.001Z</time></trkpt><trkpt lat="43.16290700546704" lon="11.697145587959099"><ele>505.0</ele><time>2026-05-03T10:22:42.001Z</time></trkpt><trkpt lat="43.16301703195738" lon="11.697001946890257"><ele>505.0</ele><time>2026-05-03T10:22:43.001Z</time></trkpt><trkpt lat="43.16314429592725" lon="11.696854892619143"><ele>504.75</ele><time>2026-05-03T10:22:44.001Z</time></trkpt><trkpt lat="43.163267301359724" lon="11.696723588161635"><ele>504.5</ele><time>2026-05-03T10:22:45.001Z</time></trkpt><trkpt lat="43.163389384437906" lon="11.69661707489703"><ele>504.25</ele><time>2026-05-03T10:22:46.001Z</time></trkpt><trkpt lat="43.1635139589373" lon="11.696535887653168"><ele>504.0</ele><time>2026-05-03T10:22:47.001Z</time></trkpt><trkpt lat="43.163649728968416" lon="11.696461837115537"><ele>504.0</ele><time>2026-05-03T10:22:48.001Z</time></trkpt><trkpt lat="43.16378303405897" lon="11.696385075428461"><ele>504.0</ele><time>2026-05-03T10:22:49.001Z</time></trkpt><trkpt lat="43.163909326736075" lon="11.696312060917727"><ele>504.0</ele><time>2026-05-03T10:22:50.001Z</time></trkpt><trkpt lat="43.164026124891556" lon="11.696250611900266"><ele>504.0</ele><time>2026-05-03T10:22:51.001Z</time></trkpt><trkpt lat="43.16414013956276" lon="11.696181289749257"><ele>504.4</ele><time>2026-05-03T10:22:52.001Z</time></trkpt><trkpt lat="43.16423704280649" lon="11.696100513362447"><ele>504.79999999999995</ele><time>2026-05-03T10:22:53.001Z</time></trkpt><trkpt lat="43.16432863905624" lon="11.696021662807157"><ele>505.20000000000005</ele><time>2026-05-03T10:22:54.001Z</time></trkpt><trkpt lat="43.164415484716734" lon="11.695942238814922"><ele>505.6</ele><time>2026-05-03T10:22:55.001Z</time></trkpt><trkpt lat="43.16450231264191" lon="11.695858446693753"><ele>506.0</ele><time>2026-05-03T10:22:56.001Z</time></trkpt><trkpt lat="43.16460277662761" lon="11.69577161925827"><ele>506.0</ele><time>2026-05-03T10:22:57.001Z</time></trkpt><trkpt lat="43.1647126465612" lon="11.695675976441315"><ele>506.0</ele><time>2026-05-03T10:22:58.001Z</time></trkpt><trkpt lat="43.16482439723778" lon="11.69558070870118"><ele>506.0</ele><time>2026-05-03T10:22:59.001Z</time></trkpt><trkpt lat="43.16493322413256" lon="11.695486848376326"><ele>506.0</ele><time>2026-05-03T10:23:00.001Z</time></trkpt><trkpt lat="43.16503581778456" lon="11.695402872109865"><ele>505.5</ele><time>2026-05-03T10:23:01.001Z</time></trkpt><trkpt lat="43.16513524672929" lon="11.695323840476798"><ele>505.0</ele><time>2026-05-03T10:23:02.001Z</time></trkpt><trkpt lat="43.16523190446048" lon="11.695260148452526"><ele>504.5</ele><time>2026-05-03T10:23:03.001Z</time></trkpt><trkpt lat="43.16533272723968" lon="11.695178222051421"><ele>504.0</ele><time>2026-05-03T10:23:04.001Z</time></trkpt><trkpt lat="43.165432046910546" lon="11.695097517210085"><ele>504.0</ele><time>2026-05-03T10:23:05.001Z</time></trkpt><trkpt lat="43.1655203879843" lon="11.695000001571035"><ele>504.0</ele><time>2026-05-03T10:23:06.001Z</time></trkpt><trkpt lat="43.16561509236406" lon="11.694936640103691"><ele>504.0</ele><time>2026-05-03T10:23:07.001Z</time></trkpt><trkpt lat="43.16570036849381" lon="11.69486495665838"><ele>504.0</ele><time>2026-05-03T10:23:08.001Z</time></trkpt><trkpt lat="43.16578406351679" lon="11.694804903829903"><ele>504.0</ele><time>2026-05-03T10:23:09.001Z</time></trkpt><trkpt lat="43.1658640952111" lon="11.69474200925031"><ele>501.0</ele><time>2026-05-03T10:23:10.001Z</time></trkpt><trkpt lat="43.16594510161361" lon="11.694682995959386"><ele>498.0</ele><time>2026-05-03T10:23:11.001Z</time></trkpt><trkpt lat="43.16602509558529" lon="11.694627147249243"><ele>495.0</ele><time>2026-05-03T10:23:12.001Z</time></trkpt><trkpt lat="43.16610683507967" lon="11.69457924009371"><ele>492.0</ele><time>2026-05-03T10:23:13.001Z</time></trkpt><trkpt lat="43.16618805595886" lon="11.694526715541707"><ele>489.0</ele><time>2026-05-03T10:23:14.001Z</time></trkpt><trkpt lat="43.166271930497885" lon="11.694486066459648"><ele>486.0</ele><time>2026-05-03T10:23:15.001Z</time></trkpt><trkpt lat="43.16636350584532" lon="11.694449447192254"><ele>486.0</ele><time>2026-05-03T10:23:16.001Z</time></trkpt><trkpt lat="43.16645552458694" lon="11.694423862279475"><ele>486.0</ele><time>2026-05-03T10:23:17.001Z</time></trkpt><trkpt lat="43.166548678085334" lon="11.694392056138113"><ele>486.0</ele><time>2026-05-03T10:23:18.001Z</time></trkpt><trkpt lat="43.166641765707226" lon="11.694365546079393"><ele>486.0</ele><time>2026-05-03T10:23:19.001Z</time></trkpt><trkpt lat="43.16673499332682" lon="11.694350460286241"><ele>486.0</ele><time>2026-05-03T10:23:20.001Z</time></trkpt><trkpt lat="43.166834540052825" lon="11.6943425149758"><ele>487.0</ele><time>2026-05-03T10:23:21.001Z</time></trkpt><trkpt lat="43.16693569046559" lon="11.694337558879027"><ele>488.0</ele><time>2026-05-03T10:23:22.001Z</time></trkpt><trkpt lat="43.16703805324928" lon="11.694335016923523"><ele>489.0</ele><time>2026-05-03T10:23:23.001Z</time></trkpt><trkpt lat="43.167142396879974" lon="11.694339874266012"><ele>490.0</ele><time>2026-05-03T10:23:24.001Z</time></trkpt><trkpt lat="43.167248934988194" lon="11.694331866111373"><ele>491.0</ele><time>2026-05-03T10:23:25.001Z</time></trkpt><trkpt lat="43.16735225987889" lon="11.69431712873886"><ele>490.6</ele><time>2026-05-03T10:23:26.001Z</time></trkpt><trkpt lat="43.16745731571514" lon="11.69428728922035"><ele>490.20000000000005</ele><time>2026-05-03T10:23:27.001Z</time></trkpt><trkpt lat="43.16754331048377" lon="11.694286785689888"><ele>489.79999999999995</ele><time>2026-05-03T10:23:28.001Z</time></trkpt><trkpt lat="43.167623976856355" lon="11.694247772774789"><ele>489.4</ele><time>2026-05-03T10:23:29.001Z</time></trkpt><trkpt lat="43.16770925884218" lon="11.694223927630748"><ele>489.0</ele><time>2026-05-03T10:23:30.001Z</time></trkpt><trkpt lat="43.16779259499907" lon="11.694175033860713"><ele>489.0</ele><time>2026-05-03T10:23:31.001Z</time></trkpt><trkpt lat="43.1678733354615" lon="11.694109368869475"><ele>489.0</ele><time>2026-05-03T10:23:32.001Z</time></trkpt><trkpt lat="43.16795451539516" lon="11.694048028333437"><ele>489.0</ele><time>2026-05-03T10:23:33.001Z</time></trkpt><trkpt lat="43.16804107816651" lon="11.693998483381357"><ele>489.0</ele><time>2026-05-03T10:23:34.001Z</time></trkpt><trkpt lat="43.16813055862298" lon="11.693938466087156"><ele>489.0</ele><time>2026-05-03T10:23:35.001Z</time></trkpt><trkpt lat="43.16822506512447" lon="11.693866107646464"><ele>487.6</ele><time>2026-05-03T10:23:36.001Z</time></trkpt><trkpt lat="43.16831676259569" lon="11.693791947417987"><ele>486.2</ele><time>2026-05-03T10:23:37.001Z</time></trkpt><trkpt lat="43.168414045152254" lon="11.693721123051203"><ele>484.80000000000007</ele><time>2026-05-03T10:23:38.001Z</time></trkpt><trkpt lat="43.168512383992294" lon="11.693654587715587"><ele>483.40000000000003</ele><time>2026-05-03T10:23:39.001Z</time></trkpt><trkpt lat="43.16861318693089" lon="11.693603245560617"><ele>482.0</ele><time>2026-05-03T10:23:40.001Z</time></trkpt><trkpt lat="43.16872902790401" lon="11.693575878636832"><ele>487.5</ele><time>2026-05-03T10:23:41.001Z</time></trkpt><trkpt lat="43.168841179820156" lon="11.693544020370993"><ele>493.0</ele><time>2026-05-03T10:23:42.001Z</time></trkpt><trkpt lat="43.16895323985399" lon="11.693529662922922"><ele>498.5</ele><time>2026-05-03T10:23:43.001Z</time></trkpt><trkpt lat="43.1690594543528" lon="11.693537918027552"><ele>504.0</ele><time>2026-05-03T10:23:44.001Z</time></trkpt><trkpt lat="43.16918210827283" lon="11.693516438165581"><ele>504.0</ele><time>2026-05-03T10:23:45.001Z</time></trkpt><trkpt lat="43.169298201464926" lon="11.693515539994815"><ele>504.0</ele><time>2026-05-03T10:23:46.001Z</time></trkpt><trkpt lat="43.16941637834334" lon="11.693518504266779"><ele>504.0</ele><time>2026-05-03T10:23:47.001Z</time></trkpt><trkpt lat="43.16953594441027" lon="11.693516411134373"><ele>504.0</ele><time>2026-05-03T10:23:48.001Z</time></trkpt><trkpt lat="43.169652802782956" lon="11.693512499932542"><ele>504.0</ele><time>2026-05-03T10:23:49.001Z</time></trkpt><trkpt lat="43.169777410814454" lon="11.693513434419668"><ele>504.0</ele><time>2026-05-03T10:23:50.001Z</time></trkpt><trkpt lat="43.169897594154634" lon="11.69352624622797"><ele>504.0</ele><time>2026-05-03T10:23:51.001Z</time></trkpt><trkpt lat="43.17002525380227" lon="11.693521785012592"><ele>504.0</ele><time>2026-05-03T10:23:52.001Z</time></trkpt><trkpt lat="43.17014272891281" lon="11.69352229137145"><ele>504.4</ele><time>2026-05-03T10:23:53.001Z</time></trkpt><trkpt lat="43.17025513253716" lon="11.693513976212847"><ele>504.79999999999995</ele><time>2026-05-03T10:23:54.001Z</time></trkpt><trkpt lat="43.17036543155809" lon="11.693510515380305"><ele>505.20000000000005</ele><time>2026-05-03T10:23:55.001Z</time></trkpt><trkpt lat="43.1704734954886" lon="11.69348710661091"><ele>505.6</ele><time>2026-05-03T10:23:56.001Z</time></trkpt><trkpt lat="43.1705815736843" lon="11.693453669517702"><ele>506.0</ele><time>2026-05-03T10:23:57.001Z</time></trkpt><trkpt lat="43.170692372347446" lon="11.693398448683684"><ele>506.0</ele><time>2026-05-03T10:23:58.001Z</time></trkpt><trkpt lat="43.17080065155635" lon="11.693307602479479"><ele>506.0</ele><time>2026-05-03T10:23:59.001Z</time></trkpt><trkpt lat="43.17090521547187" lon="11.693186606961286"><ele>506.0</ele><time>2026-05-03T10:24:00.001Z</time></trkpt><trkpt lat="43.17101039355948" lon="11.693082211685928"><ele>506.0</ele><time>2026-05-03T10:24:01.001Z</time></trkpt><trkpt lat="43.171116126032956" lon="11.692993907251909"><ele>506.0</ele><time>2026-05-03T10:24:02.001Z</time></trkpt><trkpt lat="43.17121522470319" lon="11.692917203348209"><ele>506.0</ele><time>2026-05-03T10:24:03.001Z</time></trkpt><trkpt lat="43.17131253894265" lon="11.692849234534288"><ele>506.0</ele><time>2026-05-03T10:24:04.001Z</time></trkpt><trkpt lat="43.1714079880229" lon="11.692776895423206"><ele>506.0</ele><time>2026-05-03T10:24:05.001Z</time></trkpt><trkpt lat="43.17150625562312" lon="11.692701669799664"><ele>506.0</ele><time>2026-05-03T10:24:06.001Z</time></trkpt><trkpt lat="43.17160852353029" lon="11.692626154455436"><ele>504.75</ele><time>2026-05-03T10:24:07.001Z</time></trkpt><trkpt lat="43.17172041235303" lon="11.692541366450802"><ele>503.5</ele><time>2026-05-03T10:24:08.001Z</time></trkpt><trkpt lat="43.17182266228502" lon="11.692466063969928"><ele>502.25</ele><time>2026-05-03T10:24:09.001Z</time></trkpt><trkpt lat="43.17191524776308" lon="11.692406148638547"><ele>501.0</ele><time>2026-05-03T10:24:10.001Z</time></trkpt><trkpt lat="43.172013158643324" lon="11.6923362549076"><ele>501.0</ele><time>2026-05-03T10:24:11.001Z</time></trkpt><trkpt lat="43.17211603511464" lon="11.692264987611916"><ele>501.0</ele><time>2026-05-03T10:24:12.001Z</time></trkpt><trkpt lat="43.17222260371297" lon="11.692194119443766"><ele>501.0</ele><time>2026-05-03T10:24:13.001Z</time></trkpt><trkpt lat="43.172321981761556" lon="11.692130423845493"><ele>501.0</ele><time>2026-05-03T10:24:14.001Z</time></trkpt><trkpt lat="43.17242242542933" lon="11.692076215639592"><ele>498.4</ele><time>2026-05-03T10:24:15.001Z</time></trkpt><trkpt lat="43.172522626911906" lon="11.692033918672003"><ele>495.8</ele><time>2026-05-03T10:24:16.001Z</time></trkpt><trkpt lat="43.17262331013189" lon="11.692001234075033"><ele>493.19999999999993</ele><time>2026-05-03T10:24:17.001Z</time></trkpt><trkpt lat="43.172725748839405" lon="11.691973189032689"><ele>490.59999999999997</ele><time>2026-05-03T10:24:18.001Z</time></trkpt><trkpt lat="43.172822856426464" lon="11.691958712345695"><ele>488.0</ele><time>2026-05-03T10:24:19.001Z</time></trkpt><trkpt lat="43.1729163328848" lon="11.691953042800472"><ele>488.0</ele><time>2026-05-03T10:24:20.001Z</time></trkpt><trkpt lat="43.17301347794208" lon="11.691943441869231"><ele>487.99999999999994</ele><time>2026-05-03T10:24:21.001Z</time></trkpt><trkpt lat="43.173112216852275" lon="11.691927926222327"><ele>487.99999999999994</ele><time>2026-05-03T10:24:22.001Z</time></trkpt><trkpt lat="43.17321299961965" lon="11.691911708902504"><ele>488.0</ele><time>2026-05-03T10:24:23.001Z</time></trkpt><trkpt lat="43.17331538858458" lon="11.691897175402671"><ele>488.0</ele><time>2026-05-03T10:24:24.001Z</time></trkpt><trkpt lat="43.173420790490574" lon="11.691887108605863"><ele>488.2</ele><time>2026-05-03T10:24:25.001Z</time></trkpt><trkpt lat="43.17352524345438" lon="11.691868782117613"><ele>488.4</ele><time>2026-05-03T10:24:26.001Z</time></trkpt><trkpt lat="43.17362786700167" lon="11.691855087166658"><ele>488.59999999999997</ele><time>2026-05-03T10:24:27.001Z</time></trkpt><trkpt lat="43.17373222038692" lon="11.691837534096313"><ele>488.79999999999995</ele><time>2026-05-03T10:24:28.001Z</time></trkpt><trkpt lat="43.17383585718772" lon="11.691827772745077"><ele>489.0</ele><time>2026-05-03T10:24:29.001Z</time></trkpt><trkpt lat="43.17394114235812" lon="11.691821745694055"><ele>487.79999999999995</ele><time>2026-05-03T10:24:30.001Z</time></trkpt><trkpt lat="43.17404461995988" lon="11.691816059738114"><ele>486.59999999999997</ele><time>2026-05-03T10:24:31.001Z</time></trkpt><trkpt lat="43.174143283467735" lon="11.691814296395558"><ele>485.4</ele><time>2026-05-03T10:24:32.001Z</time></trkpt><trkpt lat="43.17423530663968" lon="11.691812141502755"><ele>484.2</ele><time>2026-05-03T10:24:33.001Z</time></trkpt><trkpt lat="43.17432684105927" lon="11.691812125113088"><ele>483.0</ele><time>2026-05-03T10:24:34.001Z</time></trkpt><trkpt lat="43.17441460081652" lon="11.69179120591646"><ele>483.0</ele><time>2026-05-03T10:24:35.001Z</time></trkpt><trkpt lat="43.174506283474635" lon="11.69175785075005"><ele>482.99999999999994</ele><time>2026-05-03T10:24:36.001Z</time></trkpt><trkpt lat="43.17458352724472" lon="11.691729373433569"><ele>482.99999999999994</ele><time>2026-05-03T10:24:37.001Z</time></trkpt><trkpt lat="43.17464596547042" lon="11.691696603378448"><ele>483.0</ele><time>2026-05-03T10:24:38.001Z</time></trkpt><trkpt lat="43.1747481718757" lon="11.691640487309089"><ele>483.0</ele><time>2026-05-03T10:24:40.001Z</time></trkpt><trkpt lat="43.17486404340298" lon="11.69157876660218"><ele>481.3333333333333</ele><time>2026-05-03T10:24:42.001Z</time></trkpt><trkpt lat="43.17494033192362" lon="11.691534150300583"><ele>479.66666666666663</ele><time>2026-05-03T10:24:43.001Z</time></trkpt><trkpt lat="43.17501642749089" lon="11.69149403296421"><ele>478.0</ele><time>2026-05-03T10:24:44.001Z</time></trkpt><trkpt lat="43.175101274402536" lon="11.691453917480906"><ele>476.3333333333333</ele><time>2026-05-03T10:24:45.001Z</time></trkpt><trkpt lat="43.1751707030866" lon="11.691419055215567"><ele>474.66666666666663</ele><time>2026-05-03T10:24:46.001Z</time></trkpt><trkpt lat="43.175241536198214" lon="11.691389646641985"><ele>473.0</ele><time>2026-05-03T10:24:47.001Z</time></trkpt><trkpt lat="43.17534917414655" lon="11.691326670903855"><ele>472.99999999999994</ele><time>2026-05-03T10:24:49.001Z</time></trkpt><trkpt lat="43.17541086265236" lon="11.691285703529068"><ele>473.0</ele><time>2026-05-03T10:24:50.001Z</time></trkpt><trkpt lat="43.175494161076834" lon="11.691229170750123"><ele>473.0</ele><time>2026-05-03T10:24:52.001Z</time></trkpt><trkpt lat="43.17555385998173" lon="11.691164416128052"><ele>473.0</ele><time>2026-05-03T10:24:55.001Z</time></trkpt><trkpt lat="43.175505722466305" lon="11.691246078937947"><ele>472.99999999999994</ele><time>2026-05-03T10:25:01.001Z</time></trkpt><trkpt lat="43.1754425376862" lon="11.691296777536476"><ele>473.0</ele><time>2026-05-03T10:25:51.001Z</time></trkpt><trkpt lat="43.17542377186521" lon="11.691428252382375"><ele>473.0</ele><time>2026-05-03T10:25:52.001Z</time></trkpt><trkpt lat="43.17538984096881" lon="11.69150711324113"><ele>472.99999999999994</ele><time>2026-05-03T10:25:53.001Z</time></trkpt><trkpt lat="43.1753209768423" lon="11.691664893913359"><ele>472.99999999999994</ele><time>2026-05-03T10:25:55.001Z</time></trkpt><trkpt lat="43.17528630091679" lon="11.691744343126231"><ele>473.0</ele><time>2026-05-03T10:25:56.001Z</time></trkpt><trkpt lat="43.17525762413995" lon="11.691846104544032"><ele>473.0</ele><time>2026-05-03T10:25:57.001Z</time></trkpt><trkpt lat="43.175193791306825" lon="11.691968395019426"><ele>470.75</ele><time>2026-05-03T10:25:59.001Z</time></trkpt><trkpt lat="43.175134181964175" lon="11.692114985054124"><ele>468.5</ele><time>2026-05-03T10:26:01.001Z</time></trkpt><trkpt lat="43.175047090615244" lon="11.692227511782287"><ele>466.25</ele><time>2026-05-03T10:26:05.001Z</time></trkpt><trkpt lat="43.17489132262261" lon="11.692158482377726"><ele>464.0</ele><time>2026-05-03T10:26:06.001Z</time></trkpt><trkpt lat="43.17482680037902" lon="11.692162056360443"><ele>463.99999999999994</ele><time>2026-05-03T10:26:07.001Z</time></trkpt><trkpt lat="43.17475367982225" lon="11.692181530363895"><ele>464.0</ele><time>2026-05-03T10:26:08.001Z</time></trkpt><trkpt lat="43.17467277305586" lon="11.692203261926586"><ele>464.0</ele><time>2026-05-03T10:26:09.001Z</time></trkpt><trkpt lat="43.17458454743214" lon="11.692228939321256"><ele>464.0</ele><time>2026-05-03T10:26:10.001Z</time></trkpt><trkpt lat="43.17449974308697" lon="11.692269674899395"><ele>463.99999999999994</ele><time>2026-05-03T10:26:11.001Z</time></trkpt><trkpt lat="43.174414765519145" lon="11.692314672743207"><ele>464.0</ele><time>2026-05-03T10:26:12.001Z</time></trkpt><trkpt lat="43.17432729444869" lon="11.69236134647352"><ele>464.0</ele><time>2026-05-03T10:26:13.001Z</time></trkpt><trkpt lat="43.174239574390526" lon="11.692421059622161"><ele>464.0</ele><time>2026-05-03T10:26:14.001Z</time></trkpt><trkpt lat="43.17415921998701" lon="11.69247089830842"><ele>464.0</ele><time>2026-05-03T10:26:15.001Z</time></trkpt><trkpt lat="43.174080180253924" lon="11.692510976306172"><ele>464.0</ele><time>2026-05-03T10:26:16.001Z</time></trkpt><trkpt lat="43.17401564591015" lon="11.69255227794181"><ele>464.0</ele><time>2026-05-03T10:26:17.001Z</time></trkpt><trkpt lat="43.17392193890876" lon="11.69266925429514"><ele>464.99999999999994</ele><time>2026-05-03T10:26:19.001Z</time></trkpt><trkpt lat="43.173894351692475" lon="11.692749891822347"><ele>466.0</ele><time>2026-05-03T10:26:20.001Z</time></trkpt><trkpt lat="43.17388583047482" lon="11.692843937457345"><ele>467.0</ele><time>2026-05-03T10:26:21.001Z</time></trkpt><trkpt lat="43.17388983658047" lon="11.692942860956427"><ele>468.0</ele><time>2026-05-03T10:26:22.001Z</time></trkpt><trkpt lat="43.17390856977092" lon="11.693044457836542"><ele>468.99999999999994</ele><time>2026-05-03T10:26:23.001Z</time></trkpt><trkpt lat="43.17393437590665" lon="11.69315156800023"><ele>470.0</ele><time>2026-05-03T10:26:24.001Z</time></trkpt><trkpt lat="43.17396461042127" lon="11.693260035856266"><ele>470.0</ele><time>2026-05-03T10:26:25.001Z</time></trkpt><trkpt lat="43.17399100977251" lon="11.693358619889334"><ele>469.99999999999994</ele><time>2026-05-03T10:26:26.001Z</time></trkpt><trkpt lat="43.174015028612374" lon="11.693446697078139"><ele>470.0</ele><time>2026-05-03T10:26:27.001Z</time></trkpt><trkpt lat="43.174033742340896" lon="11.693542687251616"><ele>470.0</ele><time>2026-05-03T10:26:28.001Z</time></trkpt><trkpt lat="43.17404053737294" lon="11.6936349617939"><ele>469.99999999999994</ele><time>2026-05-03T10:26:29.001Z</time></trkpt><trkpt lat="43.174033544284576" lon="11.69373610703792"><ele>470.0</ele><time>2026-05-03T10:26:30.001Z</time></trkpt><trkpt lat="43.174034247402446" lon="11.69384192689742"><ele>470.0</ele><time>2026-05-03T10:26:31.001Z</time></trkpt><trkpt lat="43.17401678075925" lon="11.693954414526946"><ele>469.49999999999994</ele><time>2026-05-03T10:26:32.001Z</time></trkpt><trkpt lat="43.17399854599495" lon="11.694067765646242"><ele>469.0</ele><time>2026-05-03T10:26:33.001Z</time></trkpt><trkpt lat="43.17397633044066" lon="11.69417738653338"><ele>468.5</ele><time>2026-05-03T10:26:34.001Z</time></trkpt><trkpt lat="43.17394593367155" lon="11.694284547829202"><ele>468.0</ele><time>2026-05-03T10:26:35.001Z</time></trkpt><trkpt lat="43.17391876537439" lon="11.694388216898783"><ele>467.49999999999994</ele><time>2026-05-03T10:26:36Z</time></trkpt><trkpt lat="43.173895392146626" lon="11.69449345568053"><ele>467.0</ele><time>2026-05-03T10:26:37Z</time></trkpt><trkpt lat="43.17387116132418" lon="11.694607839440156"><ele>465.8</ele><time>2026-05-03T10:26:38Z</time></trkpt><trkpt lat="43.17385227506301" lon="11.69473075644526"><ele>464.6</ele><time>2026-05-03T10:26:39Z</time></trkpt><trkpt lat="43.17382971246945" lon="11.694872852135086"><ele>463.40000000000003</ele><time>2026-05-03T10:26:40Z</time></trkpt><trkpt lat="43.17380804458684" lon="11.695027207167648"><ele>462.20000000000005</ele><time>2026-05-03T10:26:41Z</time></trkpt><trkpt lat="43.17379535748463" lon="11.69517428617447"><ele>461.0</ele><time>2026-05-03T10:26:42Z</time></trkpt><trkpt lat="43.173793094510536" lon="11.695314256193447"><ele>459.0</ele><time>2026-05-03T10:26:43Z</time></trkpt><trkpt lat="43.1737930829703" lon="11.695457416318508"><ele>457.0</ele><time>2026-05-03T10:26:44Z</time></trkpt><trkpt lat="43.17393302226851" lon="11.695623520848889"><ele>455.0</ele><time>2026-05-03T10:26:45Z</time></trkpt><trkpt lat="43.17392013358245" lon="11.695740236363354"><ele>453.0</ele><time>2026-05-03T10:26:46Z</time></trkpt><trkpt lat="43.173920946527716" lon="11.69586893747119"><ele>453.0</ele><time>2026-05-03T10:26:47Z</time></trkpt><trkpt lat="43.17392959732278" lon="11.69600628990308"><ele>453.0</ele><time>2026-05-03T10:26:48Z</time></trkpt><trkpt lat="43.173939029077566" lon="11.696130521091924"><ele>453.0</ele><time>2026-05-03T10:26:49Z</time></trkpt><trkpt lat="43.173948631289804" lon="11.69624928922631"><ele>453.0</ele><time>2026-05-03T10:26:50Z</time></trkpt><trkpt lat="43.17395761192862" lon="11.696362852951573"><ele>453.0</ele><time>2026-05-03T10:26:51Z</time></trkpt><trkpt lat="43.17396532165075" lon="11.696471536405019"><ele>453.0</ele><time>2026-05-03T10:26:52Z</time></trkpt><trkpt lat="43.17397401238201" lon="11.69659941758907"><ele>451.2</ele><time>2026-05-03T10:26:53Z</time></trkpt><trkpt lat="43.17398894059537" lon="11.696735826518264"><ele>449.4</ele><time>2026-05-03T10:26:54Z</time></trkpt><trkpt lat="43.17400710119369" lon="11.69687815964669"><ele>447.59999999999997</ele><time>2026-05-03T10:26:55Z</time></trkpt><trkpt lat="43.174018533322155" lon="11.697018488762291"><ele>445.79999999999995</ele><time>2026-05-03T10:26:56Z</time></trkpt><trkpt lat="43.17402663768176" lon="11.69716490295301"><ele>444.0</ele><time>2026-05-03T10:26:57Z</time></trkpt><trkpt lat="43.17402839785725" lon="11.697304443002505"><ele>443.6666666666667</ele><time>2026-05-03T10:26:58Z</time></trkpt><trkpt lat="43.17402655009894" lon="11.697434392998469"><ele>443.33333333333337</ele><time>2026-05-03T10:26:59Z</time></trkpt><trkpt lat="43.17402479819394" lon="11.697553808601542"><ele>443.0</ele><time>2026-05-03T10:27:00Z</time></trkpt><trkpt lat="43.17402320990505" lon="11.697662069706109"><ele>442.6666666666667</ele><time>2026-05-03T10:27:01Z</time></trkpt><trkpt lat="43.17401606942735" lon="11.697776149598791"><ele>442.33333333333337</ele><time>2026-05-03T10:27:02Z</time></trkpt><trkpt lat="43.1740578337976" lon="11.697886082906871"><ele>442.0</ele><time>2026-05-03T10:27:03Z</time></trkpt><trkpt lat="43.174100709430775" lon="11.697988193070643"><ele>442.0</ele><time>2026-05-03T10:27:04Z</time></trkpt><trkpt lat="43.17414127303159" lon="11.698088382574088"><ele>442.00000000000006</ele><time>2026-05-03T10:27:05Z</time></trkpt><trkpt lat="43.17418112912581" lon="11.69819417810675"><ele>442.00000000000006</ele><time>2026-05-03T10:27:06Z</time></trkpt><trkpt lat="43.1742242093215" lon="11.698306134555073"><ele>442.0</ele><time>2026-05-03T10:27:07Z</time></trkpt><trkpt lat="43.174275571106435" lon="11.698410510053897"><ele>442.0</ele><time>2026-05-03T10:27:08Z</time></trkpt><trkpt lat="43.17433103930912" lon="11.69852039760218"><ele>442.6666666666667</ele><time>2026-05-03T10:27:09Z</time></trkpt><trkpt lat="43.17437625304931" lon="11.698626153016132"><ele>443.33333333333337</ele><time>2026-05-03T10:27:10Z</time></trkpt><trkpt lat="43.17441722435347" lon="11.698711629084482"><ele>444.0</ele><time>2026-05-03T10:27:11Z</time></trkpt><trkpt lat="43.17448187362189" lon="11.698849042793864"><ele>444.66666666666663</ele><time>2026-05-03T10:27:13Z</time></trkpt><trkpt lat="43.17456340985839" lon="11.698879442279118"><ele>445.3333333333333</ele><time>2026-05-03T10:27:14Z</time></trkpt><trkpt lat="43.17462132670629" lon="11.698932469083868"><ele>446.0</ele><time>2026-05-03T10:27:15Z</time></trkpt><trkpt lat="43.17468569900392" lon="11.698997531778454"><ele>445.99999999999994</ele><time>2026-05-03T10:27:16Z</time></trkpt><trkpt lat="43.174755895498485" lon="11.699068284492215"><ele>446.0</ele><time>2026-05-03T10:27:17Z</time></trkpt><trkpt lat="43.17482239186279" lon="11.699140165520843"><ele>446.0</ele><time>2026-05-03T10:27:18Z</time></trkpt><trkpt lat="43.17489520190614" lon="11.699212707340138"><ele>446.0</ele><time>2026-05-03T10:27:19Z</time></trkpt><trkpt lat="43.174971326245576" lon="11.699288603515487"><ele>445.99999999999994</ele><time>2026-05-03T10:27:20Z</time></trkpt><trkpt lat="43.17504721410581" lon="11.69935306173692"><ele>446.0</ele><time>2026-05-03T10:27:21Z</time></trkpt><trkpt lat="43.17512517613832" lon="11.699422123163675"><ele>443.8</ele><time>2026-05-03T10:27:22Z</time></trkpt><trkpt lat="43.17520291981093" lon="11.699501065557401"><ele>441.6</ele><time>2026-05-03T10:27:23Z</time></trkpt><trkpt lat="43.17528432573668" lon="11.699580099427473"><ele>439.4</ele><time>2026-05-03T10:27:24Z</time></trkpt><trkpt lat="43.17536813944591" lon="11.699654170114655"><ele>437.2</ele><time>2026-05-03T10:27:25Z</time></trkpt><trkpt lat="43.17544926895475" lon="11.699724992642349"><ele>435.0</ele><time>2026-05-03T10:27:26Z</time></trkpt><trkpt lat="43.17553447925477" lon="11.699797592447126"><ele>435.0</ele><time>2026-05-03T10:27:27Z</time></trkpt><trkpt lat="43.17561413456417" lon="11.699870421278376"><ele>435.0</ele><time>2026-05-03T10:27:28Z</time></trkpt><trkpt lat="43.175688045461186" lon="11.699945876265705"><ele>435.0</ele><time>2026-05-03T10:27:29Z</time></trkpt><trkpt lat="43.17575460539934" lon="11.700024342886225"><ele>435.0</ele><time>2026-05-03T10:27:30Z</time></trkpt><trkpt lat="43.175816837843215" lon="11.70010957787065"><ele>435.0</ele><time>2026-05-03T10:27:31Z</time></trkpt><trkpt lat="43.17586817110396" lon="11.700207779589194"><ele>434.3333333333333</ele><time>2026-05-03T10:27:32Z</time></trkpt><trkpt lat="43.175910682113894" lon="11.700308645041446"><ele>433.66666666666663</ele><time>2026-05-03T10:27:33Z</time></trkpt><trkpt lat="43.17594993715816" lon="11.70040999990272"><ele>433.0</ele><time>2026-05-03T10:27:34Z</time></trkpt><trkpt lat="43.175991649258215" lon="11.700507576297154"><ele>432.3333333333333</ele><time>2026-05-03T10:27:35Z</time></trkpt><trkpt lat="43.17603707646253" lon="11.70060452073939"><ele>431.66666666666663</ele><time>2026-05-03T10:27:36Z</time></trkpt><trkpt lat="43.17608340710594" lon="11.700711376513174"><ele>431.0</ele><time>2026-05-03T10:27:37Z</time></trkpt><trkpt lat="43.176137014177094" lon="11.700811257987963"><ele>430.99999999999994</ele><time>2026-05-03T10:27:38Z</time></trkpt><trkpt lat="43.17618336597445" lon="11.70090850795891"><ele>431.0</ele><time>2026-05-03T10:27:39Z</time></trkpt><trkpt lat="43.1762264580744" lon="11.701007670400363"><ele>431.0</ele><time>2026-05-03T10:27:40.001Z</time></trkpt><trkpt lat="43.17627219661506" lon="11.701104798209874"><ele>431.0</ele><time>2026-05-03T10:27:41.001Z</time></trkpt><trkpt lat="43.17632459872042" lon="11.70119532672331"><ele>430.99999999999994</ele><time>2026-05-03T10:27:42.001Z</time></trkpt><trkpt lat="43.1763737820178" lon="11.701282588464945"><ele>431.0</ele><time>2026-05-03T10:27:43.001Z</time></trkpt><trkpt lat="43.176425221503855" lon="11.701363179868796"><ele>430.66666666666663</ele><time>2026-05-03T10:27:44.001Z</time></trkpt><trkpt lat="43.17648342820207" lon="11.701447496713453"><ele>430.3333333333333</ele><time>2026-05-03T10:27:45.001Z</time></trkpt><trkpt lat="43.176545438004986" lon="11.701521224773392"><ele>430.0</ele><time>2026-05-03T10:27:46.001Z</time></trkpt><trkpt lat="43.17660647295089" lon="11.701588978667903"><ele>429.66666666666663</ele><time>2026-05-03T10:27:47.001Z</time></trkpt><trkpt lat="43.176663486369776" lon="11.701654969517435"><ele>429.3333333333333</ele><time>2026-05-03T10:27:48.001Z</time></trkpt><trkpt lat="43.17672446305505" lon="11.70172182843908"><ele>429.0</ele><time>2026-05-03T10:27:49.001Z</time></trkpt><trkpt lat="43.17678368051783" lon="11.70180324322445"><ele>429.0</ele><time>2026-05-03T10:27:50.001Z</time></trkpt><trkpt lat="43.176842129141896" lon="11.701882470739596"><ele>429.0</ele><time>2026-05-03T10:27:51.001Z</time></trkpt><trkpt lat="43.17689709473167" lon="11.70195967712323"><ele>429.0</ele><time>2026-05-03T10:27:52.001Z</time></trkpt><trkpt lat="43.176947901827035" lon="11.702038160881832"><ele>429.0</ele><time>2026-05-03T10:27:53.001Z</time></trkpt><trkpt lat="43.176996118483835" lon="11.702129511202358"><ele>429.0</ele><time>2026-05-03T10:27:54.001Z</time></trkpt><trkpt lat="43.17704454336769" lon="11.702233376192215"><ele>429.0</ele><time>2026-05-03T10:27:55.001Z</time></trkpt><trkpt lat="43.177095621698335" lon="11.70234297680453"><ele>429.3333333333333</ele><time>2026-05-03T10:27:56.001Z</time></trkpt><trkpt lat="43.17715191712326" lon="11.70245034590528"><ele>429.66666666666663</ele><time>2026-05-03T10:27:57.001Z</time></trkpt><trkpt lat="43.17720931254687" lon="11.702543173873373"><ele>430.0</ele><time>2026-05-03T10:27:58.001Z</time></trkpt><trkpt lat="43.177261247472345" lon="11.702631711861377"><ele>430.3333333333333</ele><time>2026-05-03T10:27:59.001Z</time></trkpt><trkpt lat="43.1773000501946" lon="11.70272356326054"><ele>430.66666666666663</ele><time>2026-05-03T10:28:00.001Z</time></trkpt><trkpt lat="43.17733293856659" lon="11.70281878034766"><ele>431.0</ele><time>2026-05-03T10:28:01.001Z</time></trkpt><trkpt lat="43.17738807841375" lon="11.702903310243517"><ele>428.3333333333333</ele><time>2026-05-03T10:28:02.001Z</time></trkpt><trkpt lat="43.17743584848198" lon="11.702999154114336"><ele>425.66666666666663</ele><time>2026-05-03T10:28:03.001Z</time></trkpt><trkpt lat="43.17747681955114" lon="11.70310077565152"><ele>423.0</ele><time>2026-05-03T10:28:04.001Z</time></trkpt><trkpt lat="43.17753177118551" lon="11.703195713474862"><ele>420.33333333333337</ele><time>2026-05-03T10:28:05.001Z</time></trkpt><trkpt lat="43.177591778104755" lon="11.703277884616963"><ele>417.6666666666667</ele><time>2026-05-03T10:28:06Z</time></trkpt><trkpt lat="43.177649063517414" lon="11.703347699451209"><ele>415.0</ele><time>2026-05-03T10:28:07Z</time></trkpt><trkpt lat="43.17770265338317" lon="11.703401878252292"><ele>415.0</ele><time>2026-05-03T10:28:08Z</time></trkpt><trkpt lat="43.177808002309945" lon="11.703503395236082"><ele>415.0</ele><time>2026-05-03T10:28:10Z</time></trkpt><trkpt lat="43.17786749311797" lon="11.703544076371477"><ele>415.0</ele><time>2026-05-03T10:28:11Z</time></trkpt><trkpt lat="43.17796684811999" lon="11.70359898463751"><ele>415.0</ele><time>2026-05-03T10:28:13Z</time></trkpt><trkpt lat="43.17803159710159" lon="11.703637209749965"><ele>415.0</ele><time>2026-05-03T10:28:14Z</time></trkpt><trkpt lat="43.17814503761454" lon="11.703714237014754"><ele>411.33333333333337</ele><time>2026-05-03T10:28:16Z</time></trkpt><trkpt lat="43.17820665191622" lon="11.70375981343991"><ele>407.6666666666667</ele><time>2026-05-03T10:28:17Z</time></trkpt><trkpt lat="43.17826862895105" lon="11.703805471391792"><ele>404.0</ele><time>2026-05-03T10:28:18Z</time></trkpt><trkpt lat="43.17832461656321" lon="11.703846079344348"><ele>400.33333333333337</ele><time>2026-05-03T10:28:19Z</time></trkpt><trkpt lat="43.17842169109597" lon="11.703887922847848"><ele>396.6666666666667</ele><time>2026-05-03T10:28:21Z</time></trkpt><trkpt lat="43.17851329077316" lon="11.703871625441199"><ele>393.0</ele><time>2026-05-03T10:28:23Z</time></trkpt><trkpt lat="43.17861755969849" lon="11.703807892712526"><ele>393.0</ele><time>2026-05-03T10:28:25Z</time></trkpt><trkpt lat="43.17867333516824" lon="11.703766523132677"><ele>393.0</ele><time>2026-05-03T10:28:26Z</time></trkpt><trkpt lat="43.17873809652777" lon="11.703755337403676"><ele>393.0</ele><time>2026-05-03T10:28:27Z</time></trkpt><trkpt lat="43.17884362780244" lon="11.70371405483558"><ele>393.0</ele><time>2026-05-03T10:28:29Z</time></trkpt><trkpt lat="43.17892396698591" lon="11.703792148270105"><ele>393.0</ele><time>2026-05-03T10:28:31Z</time></trkpt><trkpt lat="43.17898476888839" lon="11.703957059615709"><ele>393.3333333333333</ele><time>2026-05-03T10:28:33Z</time></trkpt><trkpt lat="43.179033081986596" lon="11.704047949375873"><ele>393.66666666666663</ele><time>2026-05-03T10:28:34Z</time></trkpt><trkpt lat="43.179064870755305" lon="11.704160183738"><ele>394.0</ele><time>2026-05-03T10:28:35Z</time></trkpt><trkpt lat="43.17910041391015" lon="11.704268050838868"><ele>394.3333333333333</ele><time>2026-05-03T10:28:36Z</time></trkpt><trkpt lat="43.17913822527696" lon="11.704359199491737"><ele>394.66666666666663</ele><time>2026-05-03T10:28:37Z</time></trkpt><trkpt lat="43.179171075050895" lon="11.704441474063815"><ele>395.0</ele><time>2026-05-03T10:28:38Z</time></trkpt><trkpt lat="43.17920844756351" lon="11.704512031762551"><ele>393.16666666666663</ele><time>2026-05-03T10:28:39Z</time></trkpt><trkpt lat="43.17925640522975" lon="11.704573714893986"><ele>391.3333333333333</ele><time>2026-05-03T10:28:40Z</time></trkpt><trkpt lat="43.17931310038682" lon="11.704621418590643"><ele>389.5</ele><time>2026-05-03T10:28:41Z</time></trkpt><trkpt lat="43.179381706304746" lon="11.704653312870004"><ele>387.66666666666663</ele><time>2026-05-03T10:28:42Z</time></trkpt><trkpt lat="43.179451069110584" lon="11.704675479894474"><ele>385.8333333333333</ele><time>2026-05-03T10:28:43Z</time></trkpt><trkpt lat="43.17951446756646" lon="11.704673577615074"><ele>384.0</ele><time>2026-05-03T10:28:44Z</time></trkpt><trkpt lat="43.17962650984536" lon="11.704621288057867"><ele>384.0</ele><time>2026-05-03T10:28:46Z</time></trkpt><trkpt lat="43.17968523024199" lon="11.70458091729695"><ele>384.0</ele><time>2026-05-03T10:28:47Z</time></trkpt><trkpt lat="43.17974279093059" lon="11.704525328684646"><ele>384.0</ele><time>2026-05-03T10:28:48Z</time></trkpt><trkpt lat="43.179808939181505" lon="11.704458611193175"><ele>384.0</ele><time>2026-05-03T10:28:49Z</time></trkpt><trkpt lat="43.17988006091212" lon="11.704412240544617"><ele>384.0</ele><time>2026-05-03T10:28:50Z</time></trkpt><trkpt lat="43.17995131890373" lon="11.704351634918494"><ele>384.0</ele><time>2026-05-03T10:28:51Z</time></trkpt><trkpt lat="43.18002012486511" lon="11.704304750495483"><ele>385.5</ele><time>2026-05-03T10:28:52Z</time></trkpt><trkpt lat="43.180085567567325" lon="11.704263091258987"><ele>387.0</ele><time>2026-05-03T10:28:53Z</time></trkpt><trkpt lat="43.18018460976659" lon="11.7042462642075"><ele>388.5</ele><time>2026-05-03T10:28:55Z</time></trkpt><trkpt lat="43.18023462024394" lon="11.704304026518273"><ele>390.0</ele><time>2026-05-03T10:28:56Z</time></trkpt><trkpt lat="43.180291944633026" lon="11.704359535806464"><ele>391.5</ele><time>2026-05-03T10:28:57Z</time></trkpt><trkpt lat="43.18034826976217" lon="11.704440005472588"><ele>393.0</ele><time>2026-05-03T10:28:58Z</time></trkpt><trkpt lat="43.18041200357216" lon="11.704524504824516"><ele>393.0</ele><time>2026-05-03T10:28:59Z</time></trkpt><trkpt lat="43.18047867504321" lon="11.704612727402852"><ele>393.0</ele><time>2026-05-03T10:29:00Z</time></trkpt><trkpt lat="43.18053313853324" lon="11.704692766513787"><ele>393.0</ele><time>2026-05-03T10:29:01Z</time></trkpt><trkpt lat="43.18057950168393" lon="11.704774608552954"><ele>393.0</ele><time>2026-05-03T10:29:02Z</time></trkpt><trkpt lat="43.18062253148576" lon="11.704875069429988"><ele>393.0</ele><time>2026-05-03T10:29:03Z</time></trkpt><trkpt lat="43.18064930077504" lon="11.704998691626521"><ele>393.0</ele><time>2026-05-03T10:29:04Z</time></trkpt><trkpt lat="43.18070732844672" lon="11.705100155842455"><ele>394.5</ele><time>2026-05-03T10:29:05Z</time></trkpt><trkpt lat="43.180756468744335" lon="11.705199318738474"><ele>396.0</ele><time>2026-05-03T10:29:06Z</time></trkpt><trkpt lat="43.18080818661861" lon="11.705287736601813"><ele>397.5</ele><time>2026-05-03T10:29:07Z</time></trkpt><trkpt lat="43.18086192753379" lon="11.705370951364852"><ele>399.0</ele><time>2026-05-03T10:29:08Z</time></trkpt><trkpt lat="43.1809270269634" lon="11.705449982512652"><ele>400.5</ele><time>2026-05-03T10:29:09Z</time></trkpt><trkpt lat="43.18099790381748" lon="11.705538028442612"><ele>402.0</ele><time>2026-05-03T10:29:10Z</time></trkpt><trkpt lat="43.181082556698726" lon="11.705641594406671"><ele>402.0</ele><time>2026-05-03T10:29:11Z</time></trkpt><trkpt lat="43.18117492274559" lon="11.705738544877784"><ele>402.0</ele><time>2026-05-03T10:29:12Z</time></trkpt><trkpt lat="43.18126677719042" lon="11.705833712720208"><ele>402.0</ele><time>2026-05-03T10:29:13Z</time></trkpt><trkpt lat="43.18135966995641" lon="11.705930899840089"><ele>402.0</ele><time>2026-05-03T10:29:14Z</time></trkpt><trkpt lat="43.18144710234939" lon="11.70601852090237"><ele>404.20000000000005</ele><time>2026-05-03T10:29:15Z</time></trkpt><trkpt lat="43.18153262261037" lon="11.706099671203775"><ele>406.4</ele><time>2026-05-03T10:29:16Z</time></trkpt><trkpt lat="43.18161453610879" lon="11.706169807505953"><ele>408.6</ele><time>2026-05-03T10:29:17Z</time></trkpt><trkpt lat="43.18169513319236" lon="11.706235214118827"><ele>410.79999999999995</ele><time>2026-05-03T10:29:18Z</time></trkpt><trkpt lat="43.18176967904431" lon="11.706299623779607"><ele>413.0</ele><time>2026-05-03T10:29:19Z</time></trkpt><trkpt lat="43.18183600153037" lon="11.706369731389527"><ele>412.99999999999994</ele><time>2026-05-03T10:29:20Z</time></trkpt><trkpt lat="43.181897933721686" lon="11.706450916682671"><ele>413.0</ele><time>2026-05-03T10:29:21Z</time></trkpt><trkpt lat="43.18195770828767" lon="11.706535601247332"><ele>413.0</ele><time>2026-05-03T10:29:22Z</time></trkpt><trkpt lat="43.18201950406198" lon="11.706625311532765"><ele>413.0</ele><time>2026-05-03T10:29:23Z</time></trkpt><trkpt lat="43.182075791577965" lon="11.706727950034315"><ele>412.99999999999994</ele><time>2026-05-03T10:29:24Z</time></trkpt><trkpt lat="43.1821278163043" lon="11.706833825962862"><ele>413.0</ele><time>2026-05-03T10:29:25Z</time></trkpt><trkpt lat="43.182183682803505" lon="11.706942011444081"><ele>413.0</ele><time>2026-05-03T10:29:26Z</time></trkpt><trkpt lat="43.18223673023715" lon="11.707038751094375"><ele>413.0</ele><time>2026-05-03T10:29:27Z</time></trkpt><trkpt lat="43.18230448158266" lon="11.707138149914487"><ele>413.0</ele><time>2026-05-03T10:29:28Z</time></trkpt><trkpt lat="43.182372255912504" lon="11.707229168473626"><ele>413.0</ele><time>2026-05-03T10:29:29Z</time></trkpt><trkpt lat="43.18243467061981" lon="11.707311488992916"><ele>413.0</ele><time>2026-05-03T10:29:30Z</time></trkpt><trkpt lat="43.18249320611612" lon="11.707398422584893"><ele>412.66666666666663</ele><time>2026-05-03T10:29:31Z</time></trkpt><trkpt lat="43.18253936959494" lon="11.70748530402054"><ele>412.3333333333333</ele><time>2026-05-03T10:29:32Z</time></trkpt><trkpt lat="43.182574449318345" lon="11.707570895277538"><ele>412.0</ele><time>2026-05-03T10:29:33Z</time></trkpt><trkpt lat="43.18260142430383" lon="11.707665300735247"><ele>411.66666666666663</ele><time>2026-05-03T10:29:34Z</time></trkpt><trkpt lat="43.1826197127158" lon="11.707769804236996"><ele>411.3333333333333</ele><time>2026-05-03T10:29:35Z</time></trkpt><trkpt lat="43.18263471597245" lon="11.707889419029975"><ele>411.0</ele><time>2026-05-03T10:29:36Z</time></trkpt><trkpt lat="43.182651611825975" lon="11.70801193378513"><ele>411.0</ele><time>2026-05-03T10:29:37Z</time></trkpt><trkpt lat="43.1826677513827" lon="11.708123316037902"><ele>411.0</ele><time>2026-05-03T10:29:38Z</time></trkpt><trkpt lat="43.18268624942564" lon="11.708232460983213"><ele>411.0</ele><time>2026-05-03T10:29:39Z</time></trkpt><trkpt lat="43.18270687124863" lon="11.708336461841109"><ele>411.0</ele><time>2026-05-03T10:29:40Z</time></trkpt><trkpt lat="43.182725726833105" lon="11.708429380168743"><ele>411.0</ele><time>2026-05-03T10:29:41Z</time></trkpt><trkpt lat="43.18274453807071" lon="11.708515747266203"><ele>411.0</ele><time>2026-05-03T10:29:42Z</time></trkpt><trkpt lat="43.18280960740001" lon="11.708653302679418"><ele>409.1666666666667</ele><time>2026-05-03T10:29:44Z</time></trkpt><trkpt lat="43.182855137079514" lon="11.708720972258476"><ele>407.33333333333337</ele><time>2026-05-03T10:29:45Z</time></trkpt><trkpt lat="43.182906727293975" lon="11.708783157933045"><ele>405.5</ele><time>2026-05-03T10:29:46.001Z</time></trkpt><trkpt lat="43.18296396887879" lon="11.708835091325122"><ele>403.6666666666667</ele><time>2026-05-03T10:29:47.001Z</time></trkpt><trkpt lat="43.18302571335463" lon="11.708876935557646"><ele>401.83333333333337</ele><time>2026-05-03T10:29:48.001Z</time></trkpt><trkpt lat="43.183125643059874" lon="11.708963630793445"><ele>400.0</ele><time>2026-05-03T10:29:50.001Z</time></trkpt><trkpt lat="43.183176589627756" lon="11.709015249622034"><ele>400.4</ele><time>2026-05-03T10:29:51.001Z</time></trkpt><trkpt lat="43.183236953801305" lon="11.709153629454809"><ele>400.8</ele><time>2026-05-03T10:29:53Z</time></trkpt><trkpt lat="43.183284498360806" lon="11.709273717775071"><ele>401.20000000000005</ele><time>2026-05-03T10:29:55Z</time></trkpt><trkpt lat="43.18334557371714" lon="11.709387420492563"><ele>401.6</ele><time>2026-05-03T10:29:57Z</time></trkpt><trkpt lat="43.183394426641854" lon="11.709486179334569"><ele>402.0</ele><time>2026-05-03T10:29:59Z</time></trkpt><trkpt lat="43.183439106841035" lon="11.709567125395445"><ele>402.0</ele><time>2026-05-03T10:30:01Z</time></trkpt><trkpt lat="43.183464598732556" lon="11.7096462846338"><ele>402.0</ele><time>2026-05-03T10:30:03Z</time></trkpt><trkpt lat="43.1835332079672" lon="11.709751930396159"><ele>402.0</ele><time>2026-05-03T10:30:06Z</time></trkpt><trkpt lat="43.18356804682826" lon="11.709866322697337"><ele>402.0</ele><time>2026-05-03T10:30:08Z</time></trkpt><trkpt lat="43.183576440831196" lon="11.709979876373446"><ele>402.0</ele><time>2026-05-03T10:30:10Z</time></trkpt><trkpt lat="43.18355818604121" lon="11.710064801649402"><ele>402.0</ele><time>2026-05-03T10:30:12Z</time></trkpt><trkpt lat="43.183505849082856" lon="11.710159702227289"><ele>402.0</ele><time>2026-05-03T10:30:14Z</time></trkpt><trkpt lat="43.18343941343646" lon="11.710224958641142"><ele>402.0</ele><time>2026-05-03T10:30:16Z</time></trkpt><trkpt lat="43.183375284608964" lon="11.710275300866606"><ele>402.0</ele><time>2026-05-03T10:30:19Z</time></trkpt><trkpt lat="43.183326965508414" lon="11.7103401374326"><ele>402.0</ele><time>2026-05-03T10:30:22Z</time></trkpt><trkpt lat="43.18330922434252" lon="11.710435475790721"><ele>402.0</ele><time>2026-05-03T10:30:25Z</time></trkpt><trkpt lat="43.1833736774281" lon="11.710488972691227"><ele>402.0</ele><time>2026-05-03T10:30:29Z</time></trkpt><trkpt lat="43.18345379459673" lon="11.710478252520431"><ele>399.3333333333333</ele><time>2026-05-03T10:30:32Z</time></trkpt><trkpt lat="43.183531797373256" lon="11.71048170209663"><ele>396.66666666666663</ele><time>2026-05-03T10:30:35Z</time></trkpt><trkpt lat="43.183600351111366" lon="11.710437982828429"><ele>394.0</ele><time>2026-05-03T10:30:38Z</time></trkpt><trkpt lat="43.18368238723393" lon="11.710395350419539"><ele>391.3333333333333</ele><time>2026-05-03T10:30:41Z</time></trkpt><trkpt lat="43.18376282206587" lon="11.71039637749197"><ele>388.66666666666663</ele><time>2026-05-03T10:30:45Z</time></trkpt><trkpt lat="43.183844267345954" lon="11.710369704002142"><ele>386.0</ele><time>2026-05-03T10:30:48Z</time></trkpt><trkpt lat="43.18390963367476" lon="11.710357068492298"><ele>385.99999999999994</ele><time>2026-05-03T10:30:50Z</time></trkpt><trkpt lat="43.183985658144174" lon="11.710345209896769"><ele>386.0</ele><time>2026-05-03T10:30:52Z</time></trkpt><trkpt lat="43.18405809894637" lon="11.710332464994245"><ele>386.0</ele><time>2026-05-03T10:30:55Z</time></trkpt><trkpt lat="43.18412697268977" lon="11.710326771708836"><ele>386.0</ele><time>2026-05-03T10:30:58Z</time></trkpt><trkpt lat="43.18419906136353" lon="11.710315019852008"><ele>385.99999999999994</ele><time>2026-05-03T10:31:01Z</time></trkpt><trkpt lat="43.18428279827605" lon="11.710318271043615"><ele>386.0</ele><time>2026-05-03T10:31:04Z</time></trkpt><trkpt lat="43.184357059256" lon="11.710260961271592"><ele>386.3333333333333</ele><time>2026-05-03T10:31:07Z</time></trkpt><trkpt lat="43.18442773768558" lon="11.71022868801407"><ele>386.66666666666663</ele><time>2026-05-03T10:31:11Z</time></trkpt><trkpt lat="43.1845025182513" lon="11.710184298664322"><ele>387.0</ele><time>2026-05-03T10:31:14Z</time></trkpt><trkpt lat="43.184579531728936" lon="11.710126717494118"><ele>387.33333333333337</ele><time>2026-05-03T10:31:17Z</time></trkpt><trkpt lat="43.18464665543266" lon="11.710069078789216"><ele>387.6666666666667</ele><time>2026-05-03T10:31:20Z</time></trkpt><trkpt lat="43.18471773237034" lon="11.710069023922289"><ele>388.0</ele><time>2026-05-03T10:31:22Z</time></trkpt><trkpt lat="43.18480441069124" lon="11.71008492482142"><ele>383.59999999999997</ele><time>2026-05-03T10:31:24Z</time></trkpt><trkpt lat="43.18488893106556" lon="11.710107206523448"><ele>379.2</ele><time>2026-05-03T10:31:26Z</time></trkpt><trkpt lat="43.184968060230425" lon="11.710133495342152"><ele>374.8</ele><time>2026-05-03T10:31:28Z</time></trkpt><trkpt lat="43.185049989704304" lon="11.71016851740223"><ele>370.4</ele><time>2026-05-03T10:31:31Z</time></trkpt><trkpt lat="43.18516124115449" lon="11.710208809819779"><ele>366.0</ele><time>2026-05-03T10:31:34Z</time></trkpt><trkpt lat="43.18524265795006" lon="11.71021192182974"><ele>366.0</ele><time>2026-05-03T10:31:36Z</time></trkpt><trkpt lat="43.18533675702922" lon="11.71023319473159"><ele>366.0</ele><time>2026-05-03T10:31:38Z</time></trkpt><trkpt lat="43.18542237119605" lon="11.710264206061748"><ele>366.0</ele><time>2026-05-03T10:31:40Z</time></trkpt><trkpt lat="43.18550568296177" lon="11.710280911158076"><ele>366.0</ele><time>2026-05-03T10:31:42Z</time></trkpt><trkpt lat="43.18558218959026" lon="11.710283213079865"><ele>366.0</ele><time>2026-05-03T10:31:45Z</time></trkpt><trkpt lat="43.18565143371699" lon="11.710292172179795"><ele>366.0</ele><time>2026-05-03T10:31:47Z</time></trkpt><trkpt lat="43.1857194836994" lon="11.710308571838612"><ele>363.5</ele><time>2026-05-03T10:31:49Z</time></trkpt><trkpt lat="43.185788555847985" lon="11.710323623264967"><ele>361.0</ele><time>2026-05-03T10:31:51Z</time></trkpt><trkpt lat="43.18587590256061" lon="11.7103534689033"><ele>358.5</ele><time>2026-05-03T10:31:54Z</time></trkpt><trkpt lat="43.18596160110183" lon="11.710371684947637"><ele>356.0</ele><time>2026-05-03T10:31:57Z</time></trkpt><trkpt lat="43.186047163224686" lon="11.71038812538896"><ele>353.5</ele><time>2026-05-03T10:32:00Z</time></trkpt><trkpt lat="43.18611536784566" lon="11.710433599165388"><ele>351.0</ele><time>2026-05-03T10:32:03Z</time></trkpt><trkpt lat="43.18619086542061" lon="11.71046035391911"><ele>351.0</ele><time>2026-05-03T10:32:06Z</time></trkpt><trkpt lat="43.18626077738097" lon="11.71046559723768"><ele>351.0</ele><time>2026-05-03T10:32:08Z</time></trkpt><trkpt lat="43.18633246743622" lon="11.710510868387047"><ele>351.0</ele><time>2026-05-03T10:32:10Z</time></trkpt><trkpt lat="43.18640309418901" lon="11.710575244466801"><ele>351.0</ele><time>2026-05-03T10:32:12Z</time></trkpt><trkpt lat="43.18649123235227" lon="11.710641050319387"><ele>351.0</ele><time>2026-05-03T10:32:14Z</time></trkpt><trkpt lat="43.1865566287003" lon="11.7107396171467"><ele>351.0</ele><time>2026-05-03T10:32:16Z</time></trkpt><trkpt lat="43.186633060038034" lon="11.710838466667193"><ele>351.0</ele><time>2026-05-03T10:32:18Z</time></trkpt><trkpt lat="43.1866683213858" lon="11.710955622443924"><ele>351.0</ele><time>2026-05-03T10:32:20Z</time></trkpt><trkpt lat="43.186724560600865" lon="11.711088816427397"><ele>351.0</ele><time>2026-05-03T10:32:22Z</time></trkpt><trkpt lat="43.1867570468183" lon="11.711169109028527"><ele>351.0</ele><time>2026-05-03T10:32:23Z</time></trkpt><trkpt lat="43.18680578970313" lon="11.71131111941175"><ele>351.0</ele><time>2026-05-03T10:32:25Z</time></trkpt><trkpt lat="43.18683831370225" lon="11.711419952096877"><ele>349.75</ele><time>2026-05-03T10:32:27Z</time></trkpt><trkpt lat="43.18689124009351" lon="11.711534814083087"><ele>348.5</ele><time>2026-05-03T10:32:29Z</time></trkpt><trkpt lat="43.186938217848194" lon="11.711682025193332"><ele>347.25</ele><time>2026-05-03T10:32:31Z</time></trkpt><trkpt lat="43.186985180126314" lon="11.711836807798766"><ele>346.0</ele><time>2026-05-03T10:32:33Z</time></trkpt><trkpt lat="43.187028059988" lon="11.71199340825008"><ele>345.3333333333333</ele><time>2026-05-03T10:32:35Z</time></trkpt><trkpt lat="43.1870483171476" lon="11.712112970432772"><ele>344.66666666666663</ele><time>2026-05-03T10:32:37Z</time></trkpt><trkpt lat="43.18707257666462" lon="11.71225876093825"><ele>344.0</ele><time>2026-05-03T10:32:39Z</time></trkpt><trkpt lat="43.18707564869225" lon="11.712376932045727"><ele>343.3333333333333</ele><time>2026-05-03T10:32:41Z</time></trkpt><trkpt lat="43.187083631110916" lon="11.712468888096053"><ele>342.6666666666667</ele><time>2026-05-03T10:32:43Z</time></trkpt><trkpt lat="43.187076523996126" lon="11.712377499081853"><ele>342.0</ele><time>2026-05-03T10:34:27Z</time></trkpt><trkpt lat="43.187086158958174" lon="11.712281089598147"><ele>341.99999999999994</ele><time>2026-05-03T10:34:44Z</time></trkpt><trkpt lat="43.1870592890441" lon="11.712191087874162"><ele>342.0</ele><time>2026-05-03T10:34:51Z</time></trkpt><trkpt lat="43.18705218904632" lon="11.712090814006059"><ele>342.0</ele><time>2026-05-03T10:34:57Z</time></trkpt><trkpt lat="43.18702936850302" lon="11.712002175426107"><ele>342.0</ele><time>2026-05-03T10:35:03Z</time></trkpt><trkpt lat="43.18704101924792" lon="11.712087061883967"><ele>342.0</ele><time>2026-05-03T10:36:00.999Z</time></trkpt><trkpt lat="43.1870702686789" lon="11.712168033447721"><ele>341.99999999999994</ele><time>2026-05-03T10:36:03.999Z</time></trkpt><trkpt lat="43.18709911880894" lon="11.712245407347753"><ele>342.0</ele><time>2026-05-03T10:36:07.999Z</time></trkpt><trkpt lat="43.187102622376294" lon="11.712340811883207"><ele>342.0</ele><time>2026-05-03T10:36:13.999Z</time></trkpt><trkpt lat="43.18715133969026" lon="11.712410467597469"><ele>342.0</ele><time>2026-05-03T10:37:33.999Z</time></trkpt><trkpt lat="43.18710413271473" lon="11.712472405502952"><ele>342.0</ele><time>2026-05-03T10:37:37.999Z</time></trkpt><trkpt lat="43.18705348031678" lon="11.71256062983581"><ele>342.0</ele><time>2026-05-03T10:39:28Z</time></trkpt><trkpt lat="43.18703049936228" lon="11.712715032656957"><ele>342.0</ele><time>2026-05-03T10:39:30Z</time></trkpt><trkpt lat="43.18701789204923" lon="11.712802807811517"><ele>342.0</ele><time>2026-05-03T10:39:31Z</time></trkpt><trkpt lat="43.18700531532614" lon="11.712969246789731"><ele>341.0</ele><time>2026-05-03T10:39:33Z</time></trkpt><trkpt lat="43.18698860881413" lon="11.713123874745948"><ele>340.0</ele><time>2026-05-03T10:39:35Z</time></trkpt><trkpt lat="43.186984122931285" lon="11.713293351089524"><ele>339.0</ele><time>2026-05-03T10:39:37Z</time></trkpt><trkpt lat="43.18697603909852" lon="11.713456084767966"><ele>338.0</ele><time>2026-05-03T10:39:39Z</time></trkpt><trkpt lat="43.18699286534044" lon="11.713612940193942"><ele>337.79999999999995</ele><time>2026-05-03T10:39:41Z</time></trkpt><trkpt lat="43.187009163385056" lon="11.71369813863917"><ele>337.6</ele><time>2026-05-03T10:39:42Z</time></trkpt><trkpt lat="43.18705089445075" lon="11.713843330806263"><ele>337.4</ele><time>2026-05-03T10:39:44Z</time></trkpt><trkpt lat="43.18709953640999" lon="11.713982435688969"><ele>337.20000000000005</ele><time>2026-05-03T10:39:46Z</time></trkpt><trkpt lat="43.187138507384255" lon="11.714105401210052"><ele>337.0</ele><time>2026-05-03T10:39:48Z</time></trkpt><trkpt lat="43.1871599529755" lon="11.714211839864"><ele>337.0</ele><time>2026-05-03T10:39:50Z</time></trkpt><trkpt lat="43.18716426497564" lon="11.714334983493504"><ele>337.0</ele><time>2026-05-03T10:39:53Z</time></trkpt><trkpt lat="43.18716103730852" lon="11.714432484909956"><ele>337.0</ele><time>2026-05-03T10:39:56Z</time></trkpt><trkpt lat="43.18717429463702" lon="11.714523404796166"><ele>337.0</ele><time>2026-05-03T10:39:59Z</time></trkpt><trkpt lat="43.18719381505718" lon="11.714610021303432"><ele>337.0</ele><time>2026-05-03T10:40:02Z</time></trkpt><trkpt lat="43.18723097222975" lon="11.71471207740997"><ele>337.0</ele><time>2026-05-03T10:40:05Z</time></trkpt><trkpt lat="43.18724971867143" lon="11.71483575318083"><ele>336.5714285714286</ele><time>2026-05-03T10:40:08Z</time></trkpt><trkpt lat="43.187257503304494" lon="11.714928905450176"><ele>336.14285714285717</ele><time>2026-05-03T10:40:10Z</time></trkpt><trkpt lat="43.187265040488434" lon="11.715021358304808"><ele>335.7142857142857</ele><time>2026-05-03T10:40:12Z</time></trkpt><trkpt lat="43.18728282640335" lon="11.715109175314595"><ele>335.28571428571433</ele><time>2026-05-03T10:40:14Z</time></trkpt><trkpt lat="43.18731893242125" lon="11.715199012799463"><ele>334.8571428571429</ele><time>2026-05-03T10:40:16Z</time></trkpt><trkpt lat="43.18736026681335" lon="11.715291147981704"><ele>334.42857142857144</ele><time>2026-05-03T10:40:18Z</time></trkpt><trkpt lat="43.18738293062022" lon="11.715379522620568"><ele>334.0</ele><time>2026-05-03T10:40:20Z</time></trkpt><trkpt lat="43.1874165255911" lon="11.715461622912414"><ele>334.66666666666663</ele><time>2026-05-03T10:40:22Z</time></trkpt><trkpt lat="43.18745032404246" lon="11.715555872090471"><ele>335.3333333333333</ele><time>2026-05-03T10:40:24Z</time></trkpt><trkpt lat="43.18749887660368" lon="11.715665983616283"><ele>336.0</ele><time>2026-05-03T10:40:26Z</time></trkpt><trkpt lat="43.18752821567942" lon="11.715745202532267"><ele>336.6666666666667</ele><time>2026-05-03T10:40:29Z</time></trkpt><trkpt lat="43.18756323989956" lon="11.71582354623675"><ele>337.33333333333337</ele><time>2026-05-03T10:40:30Z</time></trkpt><trkpt lat="43.18761070925778" lon="11.715966555101"><ele>338.0</ele><time>2026-05-03T10:40:32Z</time></trkpt><trkpt lat="43.18765397893557" lon="11.71608796120587"><ele>338.0</ele><time>2026-05-03T10:40:34Z</time></trkpt><trkpt lat="43.187711437382184" lon="11.716216212955107"><ele>338.0</ele><time>2026-05-03T10:40:36Z</time></trkpt><trkpt lat="43.187777092638925" lon="11.716318238642321"><ele>338.0</ele><time>2026-05-03T10:40:38Z</time></trkpt><trkpt lat="43.18784591243057" lon="11.716402957104421"><ele>338.0</ele><time>2026-05-03T10:40:40Z</time></trkpt><trkpt lat="43.187888497510286" lon="11.716496571402969"><ele>338.0</ele><time>2026-05-03T10:40:42Z</time></trkpt><trkpt lat="43.187939115604934" lon="11.71662743330905"><ele>338.0</ele><time>2026-05-03T10:40:44Z</time></trkpt><trkpt lat="43.18798050308753" lon="11.716771622529194"><ele>338.0</ele><time>2026-05-03T10:40:46Z</time></trkpt><trkpt lat="43.18804243665004" lon="11.716924376322943"><ele>338.0</ele><time>2026-05-03T10:40:48Z</time></trkpt><trkpt lat="43.18811977522103" lon="11.717024960758643"><ele>338.0</ele><time>2026-05-03T10:40:50Z</time></trkpt><trkpt lat="43.188216954981115" lon="11.717094973928328"><ele>338.59999999999997</ele><time>2026-05-03T10:40:52Z</time></trkpt><trkpt lat="43.18831029312921" lon="11.71717076979141"><ele>339.2</ele><time>2026-05-03T10:40:54Z</time></trkpt><trkpt lat="43.188421271455894" lon="11.71721347295054"><ele>339.8</ele><time>2026-05-03T10:40:56Z</time></trkpt><trkpt lat="43.18851287715534" lon="11.717225543805977"><ele>340.4</ele><time>2026-05-03T10:40:58Z</time></trkpt><trkpt lat="43.1886047978709" lon="11.717250704377994"><ele>341.0</ele><time>2026-05-03T10:41:00Z</time></trkpt><trkpt lat="43.18868282050908" lon="11.717286650773598"><ele>341.0</ele><time>2026-05-03T10:41:02Z</time></trkpt><trkpt lat="43.18876825759042" lon="11.717311691322658"><ele>341.0</ele><time>2026-05-03T10:41:05Z</time></trkpt><trkpt lat="43.18883540450421" lon="11.71734962903812"><ele>341.0</ele><time>2026-05-03T10:41:24Z</time></trkpt><trkpt lat="43.18892796763703" lon="11.717433731821453"><ele>341.0</ele><time>2026-05-03T10:41:26Z</time></trkpt><trkpt lat="43.18900169269997" lon="11.717538440951865"><ele>341.0</ele><time>2026-05-03T10:41:28Z</time></trkpt><trkpt lat="43.18907217437554" lon="11.717634244249492"><ele>341.8</ele><time>2026-05-03T10:41:30Z</time></trkpt><trkpt lat="43.189137074409196" lon="11.71775874050322"><ele>342.6</ele><time>2026-05-03T10:41:32Z</time></trkpt><trkpt lat="43.189204977351665" lon="11.717899997992886"><ele>343.4</ele><time>2026-05-03T10:41:34Z</time></trkpt><trkpt lat="43.189263924287914" lon="11.71801289788085"><ele>344.2</ele><time>2026-05-03T10:41:36Z</time></trkpt><trkpt lat="43.18933584137654" lon="11.71809814537176"><ele>345.0</ele><time>2026-05-03T10:41:38Z</time></trkpt><trkpt lat="43.189391344915755" lon="11.718217014110628"><ele>345.0</ele><time>2026-05-03T10:41:40Z</time></trkpt><trkpt lat="43.18946759496853" lon="11.718338728741696"><ele>345.0</ele><time>2026-05-03T10:41:42Z</time></trkpt><trkpt lat="43.189539072399775" lon="11.718464398927896"><ele>345.0</ele><time>2026-05-03T10:41:44Z</time></trkpt><trkpt lat="43.189592892328456" lon="11.718603487322337"><ele>345.0</ele><time>2026-05-03T10:41:46Z</time></trkpt><trkpt lat="43.1896216527543" lon="11.718681325183091"><ele>345.0</ele><time>2026-05-03T10:41:47Z</time></trkpt><trkpt lat="43.18966704161893" lon="11.718754762333626"><ele>345.2</ele><time>2026-05-03T10:41:48Z</time></trkpt><trkpt lat="43.18971461853542" lon="11.718896874008847"><ele>345.4</ele><time>2026-05-03T10:41:50Z</time></trkpt><trkpt lat="43.18977907409406" lon="11.718990164357173"><ele>345.6</ele><time>2026-05-03T10:41:52Z</time></trkpt><trkpt lat="43.18984059735428" lon="11.719103155271823"><ele>345.8</ele><time>2026-05-03T10:41:54Z</time></trkpt><trkpt lat="43.189895971330486" lon="11.719191066854176"><ele>346.0</ele><time>2026-05-03T10:41:56Z</time></trkpt><trkpt lat="43.18992738660708" lon="11.71932580624329"><ele>343.20000000000005</ele><time>2026-05-03T10:41:59Z</time></trkpt><trkpt lat="43.18993550360411" lon="11.719481984666082"><ele>340.40000000000003</ele><time>2026-05-03T10:42:01Z</time></trkpt><trkpt lat="43.18993102898294" lon="11.719593471980067"><ele>337.6</ele><time>2026-05-03T10:42:03Z</time></trkpt><trkpt lat="43.1899171784768" lon="11.719751415202616"><ele>334.8</ele><time>2026-05-03T10:42:05Z</time></trkpt><trkpt lat="43.189907289220166" lon="11.719854309832378"><ele>332.0</ele><time>2026-05-03T10:42:06Z</time></trkpt><trkpt lat="43.18990780109465" lon="11.719954771547364"><ele>332.0</ele><time>2026-05-03T10:42:07Z</time></trkpt><trkpt lat="43.18989221645212" lon="11.720040547301961"><ele>332.0</ele><time>2026-05-03T10:42:08Z</time></trkpt><trkpt lat="43.189873079152" lon="11.72020307417378"><ele>332.0</ele><time>2026-05-03T10:42:10Z</time></trkpt><trkpt lat="43.18986362312705" lon="11.720380656902815"><ele>332.0</ele><time>2026-05-03T10:42:12Z</time></trkpt><trkpt lat="43.18985360382365" lon="11.720479490766397"><ele>332.0</ele><time>2026-05-03T10:42:13Z</time></trkpt><trkpt lat="43.18984716463327" lon="11.720571164513439"><ele>332.25</ele><time>2026-05-03T10:42:14Z</time></trkpt><trkpt lat="43.189863280381" lon="11.720730513511635"><ele>332.5</ele><time>2026-05-03T10:42:16Z</time></trkpt><trkpt lat="43.189890059285894" lon="11.720881437819589"><ele>332.75</ele><time>2026-05-03T10:42:18Z</time></trkpt><trkpt lat="43.18992165584225" lon="11.721037633367011"><ele>333.0</ele><time>2026-05-03T10:42:20Z</time></trkpt><trkpt lat="43.18995042954662" lon="11.721183618028306"><ele>333.2</ele><time>2026-05-03T10:42:22Z</time></trkpt><trkpt lat="43.18998897266251" lon="11.72130278123359"><ele>333.4</ele><time>2026-05-03T10:42:24Z</time></trkpt><trkpt lat="43.190027864302394" lon="11.721375667001778"><ele>333.59999999999997</ele><time>2026-05-03T10:42:26Z</time></trkpt><trkpt lat="43.19009144463012" lon="11.721464585034944"><ele>333.79999999999995</ele><time>2026-05-03T10:42:28Z</time></trkpt><trkpt lat="43.19018083780501" lon="11.721547831345843"><ele>334.0</ele><time>2026-05-03T10:42:30Z</time></trkpt><trkpt lat="43.19026799691333" lon="11.721636376602904"><ele>334.0</ele><time>2026-05-03T10:42:32Z</time></trkpt><trkpt lat="43.19032562730645" lon="11.72167856955258"><ele>334.0</ele><time>2026-05-03T10:42:33Z</time></trkpt><trkpt lat="43.19043350192564" lon="11.721760110444185"><ele>334.0</ele><time>2026-05-03T10:42:35Z</time></trkpt><trkpt lat="43.19053128724196" lon="11.72183997456464"><ele>334.0</ele><time>2026-05-03T10:42:37Z</time></trkpt><trkpt lat="43.19062283431899" lon="11.721913517270467"><ele>334.0</ele><time>2026-05-03T10:42:39Z</time></trkpt><trkpt lat="43.19069703000969" lon="11.721988361931768"><ele>332.2</ele><time>2026-05-03T10:42:41Z</time></trkpt><trkpt lat="43.190768653619664" lon="11.722071868417084"><ele>330.4</ele><time>2026-05-03T10:42:43Z</time></trkpt><trkpt lat="43.190859160223376" lon="11.722157336221896"><ele>328.6</ele><time>2026-05-03T10:42:45Z</time></trkpt><trkpt lat="43.19095124665991" lon="11.722245253644816"><ele>326.8</ele><time>2026-05-03T10:42:47Z</time></trkpt><trkpt lat="43.191026833272204" lon="11.722332096409446"><ele>325.0</ele><time>2026-05-03T10:42:49Z</time></trkpt><trkpt lat="43.19110418634185" lon="11.722401649010973"><ele>325.0</ele><time>2026-05-03T10:42:51Z</time></trkpt><trkpt lat="43.191173492524726" lon="11.72247779865629"><ele>325.0</ele><time>2026-05-03T10:42:53Z</time></trkpt><trkpt lat="43.191227981762474" lon="11.72254629414032"><ele>325.0</ele><time>2026-05-03T10:42:55Z</time></trkpt><trkpt lat="43.19127516823405" lon="11.722659955419868"><ele>325.0</ele><time>2026-05-03T10:42:57Z</time></trkpt><trkpt lat="43.191330209432216" lon="11.722766017160257"><ele>325.0</ele><time>2026-05-03T10:42:59Z</time></trkpt><trkpt lat="43.19139107455498" lon="11.722861466622255"><ele>325.0</ele><time>2026-05-03T10:43:01Z</time></trkpt><trkpt lat="43.19145979508288" lon="11.722975172621684"><ele>324.66666666666663</ele><time>2026-05-03T10:43:03Z</time></trkpt><trkpt lat="43.19151558352675" lon="11.723066594572293"><ele>324.3333333333333</ele><time>2026-05-03T10:43:05Z</time></trkpt><trkpt lat="43.191556643721555" lon="11.723149391493633"><ele>324.0</ele><time>2026-05-03T10:43:07Z</time></trkpt><trkpt lat="43.19158955280304" lon="11.723253122552453"><ele>323.6666666666667</ele><time>2026-05-03T10:43:10Z</time></trkpt><trkpt lat="43.191641250264" lon="11.723354386024587"><ele>323.33333333333337</ele><time>2026-05-03T10:43:13Z</time></trkpt><trkpt lat="43.19168524022757" lon="11.723425026545067"><ele>323.0</ele><time>2026-05-03T10:43:15Z</time></trkpt><trkpt lat="43.191762645431545" lon="11.723513474036759"><ele>323.0</ele><time>2026-05-03T10:43:18Z</time></trkpt><trkpt lat="43.191816167773204" lon="11.72356091170978"><ele>323.0</ele><time>2026-05-03T10:43:20Z</time></trkpt><trkpt lat="43.19189584125993" lon="11.723615726809333"><ele>323.0</ele><time>2026-05-03T10:43:22Z</time></trkpt><trkpt lat="43.19195787462398" lon="11.723671593133353"><ele>323.0</ele><time>2026-05-03T10:43:25Z</time></trkpt><trkpt lat="43.19203105700843" lon="11.723741344573764"><ele>323.0</ele><time>2026-05-03T10:43:28Z</time></trkpt><trkpt lat="43.192079770994376" lon="11.723823242500469"><ele>323.0</ele><time>2026-05-03T10:43:30Z</time></trkpt><trkpt lat="43.19213664235396" lon="11.723917435856714"><ele>322.83333333333337</ele><time>2026-05-03T10:43:32Z</time></trkpt><trkpt lat="43.19218992099348" lon="11.724027691600998"><ele>322.6666666666667</ele><time>2026-05-03T10:43:35Z</time></trkpt><trkpt lat="43.19224046595691" lon="11.724112611079079"><ele>322.5</ele><time>2026-05-03T10:43:37Z</time></trkpt><trkpt lat="43.19230751940982" lon="11.724159026033947"><ele>322.3333333333333</ele><time>2026-05-03T10:43:39Z</time></trkpt><trkpt lat="43.19236006279319" lon="11.724215861973992"><ele>322.16666666666663</ele><time>2026-05-03T10:43:42Z</time></trkpt><trkpt lat="43.192397712397224" lon="11.72430030041218"><ele>322.0</ele><time>2026-05-03T10:43:53Z</time></trkpt><trkpt lat="43.192477588192936" lon="11.724403503685123"><ele>321.6</ele><time>2026-05-03T10:43:55Z</time></trkpt><trkpt lat="43.19254730010282" lon="11.724468309161692"><ele>321.20000000000005</ele><time>2026-05-03T10:43:57Z</time></trkpt><trkpt lat="43.19263601313956" lon="11.724545266073315"><ele>320.8</ele><time>2026-05-03T10:43:59Z</time></trkpt><trkpt lat="43.192695762401385" lon="11.724641018046414"><ele>320.4</ele><time>2026-05-03T10:44:01Z</time></trkpt><trkpt lat="43.192744371807166" lon="11.724775390512647"><ele>320.0</ele><time>2026-05-03T10:44:03Z</time></trkpt><trkpt lat="43.192763074002876" lon="11.724867044718485"><ele>320.0</ele><time>2026-05-03T10:44:05Z</time></trkpt><trkpt lat="43.192805041059394" lon="11.724965894385635"><ele>320.0</ele><time>2026-05-03T10:44:07Z</time></trkpt><trkpt lat="43.19285024565693" lon="11.7250617485672"><ele>320.0</ele><time>2026-05-03T10:44:09Z</time></trkpt><trkpt lat="43.192917730701" lon="11.725213437415158"><ele>320.0</ele><time>2026-05-03T10:44:11Z</time></trkpt><trkpt lat="43.19295913002619" lon="11.725291097386082"><ele>320.0</ele><time>2026-05-03T10:44:12Z</time></trkpt><trkpt lat="43.193032877432316" lon="11.725421135792788"><ele>319.2</ele><time>2026-05-03T10:44:14Z</time></trkpt><trkpt lat="43.19309594240104" lon="11.725538481350021"><ele>318.4</ele><time>2026-05-03T10:44:16Z</time></trkpt><trkpt lat="43.19313138095465" lon="11.72564824724099"><ele>317.6</ele><time>2026-05-03T10:44:18Z</time></trkpt><trkpt lat="43.19318604261741" lon="11.725737154699068"><ele>316.8</ele><time>2026-05-03T10:44:20Z</time></trkpt><trkpt lat="43.19321190649831" lon="11.725848296528046"><ele>316.0</ele><time>2026-05-03T10:44:22Z</time></trkpt><trkpt lat="43.19325700100031" lon="11.72597825373389"><ele>315.0</ele><time>2026-05-03T10:44:24Z</time></trkpt><trkpt lat="43.19329762059168" lon="11.726107466310848"><ele>314.0</ele><time>2026-05-03T10:44:26Z</time></trkpt><trkpt lat="43.1933302285441" lon="11.72622591723674"><ele>313.0</ele><time>2026-05-03T10:44:28Z</time></trkpt><trkpt lat="43.1933302250585" lon="11.726397232837291"><ele>312.0</ele><time>2026-05-03T10:44:30Z</time></trkpt><trkpt lat="43.19332114698754" lon="11.726484725889122"><ele>311.0</ele><time>2026-05-03T10:44:31Z</time></trkpt><trkpt lat="43.193351211257465" lon="11.726594655719351"><ele>311.0</ele><time>2026-05-03T10:44:32Z</time></trkpt><trkpt lat="43.19338943019412" lon="11.726753108892135"><ele>311.0</ele><time>2026-05-03T10:44:34Z</time></trkpt><trkpt lat="43.19341083439115" lon="11.726845529493543"><ele>311.0</ele><time>2026-05-03T10:44:35Z</time></trkpt><trkpt lat="43.19343239432105" lon="11.726938622503903"><ele>311.0</ele><time>2026-05-03T10:44:36Z</time></trkpt><trkpt lat="43.19346678035356" lon="11.727027598604321"><ele>311.0</ele><time>2026-05-03T10:44:37Z</time></trkpt><trkpt lat="43.1934840677567" lon="11.727113937462017"><ele>311.0</ele><time>2026-05-03T10:44:38Z</time></trkpt><trkpt lat="43.19352169897633" lon="11.727199256122653"><ele>309.6666666666667</ele><time>2026-05-03T10:44:39Z</time></trkpt><trkpt lat="43.19356659931224" lon="11.72729042842855"><ele>308.33333333333337</ele><time>2026-05-03T10:44:40Z</time></trkpt><trkpt lat="43.193599009139" lon="11.727377519784742"><ele>307.0</ele><time>2026-05-03T10:44:41Z</time></trkpt><trkpt lat="43.19364093686216" lon="11.727456456563267"><ele>305.6666666666667</ele><time>2026-05-03T10:44:42Z</time></trkpt><trkpt lat="43.19368396920772" lon="11.727533552506069"><ele>304.3333333333333</ele><time>2026-05-03T10:44:43Z</time></trkpt><trkpt lat="43.19376312394876" lon="11.727663264242072"><ele>303.0</ele><time>2026-05-03T10:44:45Z</time></trkpt><trkpt lat="43.1938387342276" lon="11.727786534987507"><ele>303.1666666666667</ele><time>2026-05-03T10:44:47Z</time></trkpt><trkpt lat="43.193929179683884" lon="11.727909465366016"><ele>303.3333333333333</ele><time>2026-05-03T10:44:49Z</time></trkpt><trkpt lat="43.193970755154204" lon="11.727983834559112"><ele>303.5</ele><time>2026-05-03T10:44:50Z</time></trkpt><trkpt lat="43.19401700543939" lon="11.728052676795638"><ele>303.66666666666663</ele><time>2026-05-03T10:44:51Z</time></trkpt><trkpt lat="43.19405841360028" lon="11.728125704159826"><ele>303.8333333333333</ele><time>2026-05-03T10:44:52Z</time></trkpt><trkpt lat="43.194094878258674" lon="11.72820262528441"><ele>304.0</ele><time>2026-05-03T10:44:53Z</time></trkpt><trkpt lat="43.19413956293799" lon="11.728277839634366"><ele>304.0</ele><time>2026-05-03T10:44:54Z</time></trkpt><trkpt lat="43.19418570177458" lon="11.728360303858826"><ele>304.0</ele><time>2026-05-03T10:44:55Z</time></trkpt><trkpt lat="43.19423088889032" lon="11.728438336870024"><ele>304.0</ele><time>2026-05-03T10:44:56Z</time></trkpt><trkpt lat="43.19427405441702" lon="11.728517019567338"><ele>304.0</ele><time>2026-05-03T10:44:57Z</time></trkpt><trkpt lat="43.19431256236155" lon="11.728590721617149"><ele>304.0</ele><time>2026-05-03T10:44:58Z</time></trkpt><trkpt lat="43.19438225533813" lon="11.728710808763868"><ele>304.0</ele><time>2026-05-03T10:45:00Z</time></trkpt><trkpt lat="43.19443126334686" lon="11.728796883239962"><ele>302.4</ele><time>2026-05-03T10:45:02Z</time></trkpt><trkpt lat="43.19447304080206" lon="11.728905963383747"><ele>300.79999999999995</ele><time>2026-05-03T10:45:05Z</time></trkpt><trkpt lat="43.19452129324556" lon="11.728966746892418"><ele>299.20000000000005</ele><time>2026-05-03T10:45:07Z</time></trkpt><trkpt lat="43.194571861375344" lon="11.729081362214922"><ele>297.6</ele><time>2026-05-03T10:45:09Z</time></trkpt><trkpt lat="43.19464168409472" lon="11.729231980774223"><ele>296.0</ele><time>2026-05-03T10:45:11Z</time></trkpt><trkpt lat="43.19468076307661" lon="11.72930716225465"><ele>296.0</ele><time>2026-05-03T10:45:12Z</time></trkpt><trkpt lat="43.19472697363663" lon="11.729383517331643"><ele>296.0</ele><time>2026-05-03T10:45:13Z</time></trkpt><trkpt lat="43.19477271857116" lon="11.729452880216636"><ele>296.0</ele><time>2026-05-03T10:45:14Z</time></trkpt><trkpt lat="43.194816577847426" lon="11.729535438279052"><ele>296.0</ele><time>2026-05-03T10:45:15Z</time></trkpt><trkpt lat="43.194853453307786" lon="11.729634416107"><ele>296.0</ele><time>2026-05-03T10:45:16Z</time></trkpt><trkpt lat="43.194889116374576" lon="11.729748540548547"><ele>296.0</ele><time>2026-05-03T10:45:17Z</time></trkpt><trkpt lat="43.194915964734754" lon="11.729874662380176"><ele>296.0</ele><time>2026-05-03T10:45:18Z</time></trkpt><trkpt lat="43.19494311633784" lon="11.730002707445722"><ele>296.0</ele><time>2026-05-03T10:45:19Z</time></trkpt><trkpt lat="43.194969830551706" lon="11.730129805861724"><ele>296.0</ele><time>2026-05-03T10:45:20.001Z</time></trkpt><trkpt lat="43.1949963567685" lon="11.730251280154437"><ele>296.0</ele><time>2026-05-03T10:45:21Z</time></trkpt><trkpt lat="43.19502258698726" lon="11.73036876885396"><ele>296.0</ele><time>2026-05-03T10:45:22Z</time></trkpt><trkpt lat="43.19504384343046" lon="11.730485370772003"><ele>295.5</ele><time>2026-05-03T10:45:23Z</time></trkpt><trkpt lat="43.19506554578477" lon="11.730597053917629"><ele>295.0</ele><time>2026-05-03T10:45:24Z</time></trkpt><trkpt lat="43.19508573248548" lon="11.73070585905256"><ele>294.5</ele><time>2026-05-03T10:45:25Z</time></trkpt><trkpt lat="43.19510847699094" lon="11.730816079738098"><ele>294.0</ele><time>2026-05-03T10:45:26Z</time></trkpt><trkpt lat="43.19513503816002" lon="11.730931249973164"><ele>293.5</ele><time>2026-05-03T10:45:27Z</time></trkpt><trkpt lat="43.195162846668545" lon="11.731050131370484"><ele>293.0</ele><time>2026-05-03T10:45:28Z</time></trkpt><trkpt lat="43.19518517786304" lon="11.731163787450003"><ele>291.33333333333337</ele><time>2026-05-03T10:45:29Z</time></trkpt><trkpt lat="43.19521100358622" lon="11.731268185794445"><ele>289.6666666666667</ele><time>2026-05-03T10:45:30Z</time></trkpt><trkpt lat="43.195246796177734" lon="11.731363136823093"><ele>288.0</ele><time>2026-05-03T10:45:31Z</time></trkpt><trkpt lat="43.19529452501219" lon="11.731452429075219"><ele>286.3333333333333</ele><time>2026-05-03T10:45:32Z</time></trkpt><trkpt lat="43.19535605068074" lon="11.731543218033567"><ele>284.66666666666663</ele><time>2026-05-03T10:45:33Z</time></trkpt><trkpt lat="43.195419363064694" lon="11.73163803569556"><ele>283.0</ele><time>2026-05-03T10:45:34Z</time></trkpt><trkpt lat="43.195487929880485" lon="11.731724965330782"><ele>283.0</ele><time>2026-05-03T10:45:35Z</time></trkpt><trkpt lat="43.19554579018665" lon="11.731827831581784"><ele>283.0</ele><time>2026-05-03T10:45:36Z</time></trkpt><trkpt lat="43.19561565014574" lon="11.73191701911187"><ele>283.0</ele><time>2026-05-03T10:45:37Z</time></trkpt><trkpt lat="43.195656252265586" lon="11.732034544302874"><ele>283.0</ele><time>2026-05-03T10:45:38Z</time></trkpt><trkpt lat="43.195685280862826" lon="11.732142922681993"><ele>283.0</ele><time>2026-05-03T10:45:39Z</time></trkpt><trkpt lat="43.195703773258465" lon="11.73224365446348"><ele>283.0</ele><time>2026-05-03T10:45:40Z</time></trkpt><trkpt lat="43.19571831455613" lon="11.732336598076362"><ele>283.16666666666663</ele><time>2026-05-03T10:45:41Z</time></trkpt><trkpt lat="43.19573597254365" lon="11.73242629095222"><ele>283.3333333333333</ele><time>2026-05-03T10:45:42Z</time></trkpt><trkpt lat="43.195765264975435" lon="11.732514926632668"><ele>283.5</ele><time>2026-05-03T10:45:43Z</time></trkpt><trkpt lat="43.195803569462804" lon="11.73262169685799"><ele>283.6666666666667</ele><time>2026-05-03T10:45:44Z</time></trkpt><trkpt lat="43.19584900220238" lon="11.732727895923434"><ele>283.83333333333337</ele><time>2026-05-03T10:45:45Z</time></trkpt><trkpt lat="43.19589623575188" lon="11.732824126182091"><ele>284.0</ele><time>2026-05-03T10:45:46Z</time></trkpt><trkpt lat="43.19595128085132" lon="11.73291156508972"><ele>283.0</ele><time>2026-05-03T10:45:47Z</time></trkpt><trkpt lat="43.19601288626675" lon="11.732990811325656"><ele>282.0</ele><time>2026-05-03T10:45:48Z</time></trkpt><trkpt lat="43.19607793068142" lon="11.733066675660877"><ele>281.0</ele><time>2026-05-03T10:45:49Z</time></trkpt><trkpt lat="43.19614247774978" lon="11.733135412725908"><ele>280.0</ele><time>2026-05-03T10:45:50Z</time></trkpt><trkpt lat="43.196206035243854" lon="11.733210074295737"><ele>279.0</ele><time>2026-05-03T10:45:51Z</time></trkpt><trkpt lat="43.19626955946993" lon="11.733289932503668"><ele>278.0</ele><time>2026-05-03T10:45:52Z</time></trkpt><trkpt lat="43.19632895143258" lon="11.733368669896898"><ele>278.0</ele><time>2026-05-03T10:45:53Z</time></trkpt><trkpt lat="43.19638926079305" lon="11.73344479062979"><ele>278.0</ele><time>2026-05-03T10:45:54Z</time></trkpt><trkpt lat="43.19644776661256" lon="11.733523149211996"><ele>278.0</ele><time>2026-05-03T10:45:55Z</time></trkpt><trkpt lat="43.19649746511516" lon="11.733619784277675"><ele>278.0</ele><time>2026-05-03T10:45:56Z</time></trkpt><trkpt lat="43.196539296378724" lon="11.733724045765426"><ele>278.0</ele><time>2026-05-03T10:45:57Z</time></trkpt><trkpt lat="43.1965766437784" lon="11.733825119011932"><ele>278.0</ele><time>2026-05-03T10:45:58Z</time></trkpt><trkpt lat="43.19661142286301" lon="11.733920442259024"><ele>277.5</ele><time>2026-05-03T10:45:59Z</time></trkpt><trkpt lat="43.19664533869155" lon="11.73401041463222"><ele>277.0</ele><time>2026-05-03T10:46:00Z</time></trkpt><trkpt lat="43.19669047351359" lon="11.734081526830101"><ele>276.5</ele><time>2026-05-03T10:46:01Z</time></trkpt><trkpt lat="43.19674922858765" lon="11.734136591976242"><ele>276.0</ele><time>2026-05-03T10:46:02Z</time></trkpt><trkpt lat="43.196820741588056" lon="11.73419142780572"><ele>275.5</ele><time>2026-05-03T10:46:03Z</time></trkpt><trkpt lat="43.1968999974545" lon="11.734220027743214"><ele>275.0</ele><time>2026-05-03T10:46:04Z</time></trkpt><trkpt lat="43.196986732902246" lon="11.734224907651761"><ele>275.0</ele><time>2026-05-03T10:46:05Z</time></trkpt><trkpt lat="43.19708374004735" lon="11.73420971125453"><ele>275.0</ele><time>2026-05-03T10:46:06Z</time></trkpt><trkpt lat="43.19718715200115" lon="11.73418199159469"><ele>275.0</ele><time>2026-05-03T10:46:07Z</time></trkpt><trkpt lat="43.19729371945132" lon="11.734138244592852"><ele>275.0</ele><time>2026-05-03T10:46:08Z</time></trkpt><trkpt lat="43.19738682931642" lon="11.734095511860655"><ele>275.0</ele><time>2026-05-03T10:46:09Z</time></trkpt><trkpt lat="43.19747875578484" lon="11.734059587832656"><ele>274.33333333333337</ele><time>2026-05-03T10:46:10Z</time></trkpt><trkpt lat="43.1975655912313" lon="11.734031292865733"><ele>273.6666666666667</ele><time>2026-05-03T10:46:11Z</time></trkpt><trkpt lat="43.19764922590966" lon="11.734009424768262"><ele>273.0</ele><time>2026-05-03T10:46:12Z</time></trkpt><trkpt lat="43.197730734123766" lon="11.734001730068977"><ele>272.3333333333333</ele><time>2026-05-03T10:46:13Z</time></trkpt><trkpt lat="43.197809893088866" lon="11.733994558856038"><ele>271.66666666666663</ele><time>2026-05-03T10:46:14Z</time></trkpt><trkpt lat="43.197892441939" lon="11.733990846822943"><ele>271.0</ele><time>2026-05-03T10:46:15Z</time></trkpt><trkpt lat="43.19797707262966" lon="11.73399656956638"><ele>271.0</ele><time>2026-05-03T10:46:16Z</time></trkpt><trkpt lat="43.19806024962783" lon="11.733998821589532"><ele>271.0</ele><time>2026-05-03T10:46:17Z</time></trkpt><trkpt lat="43.19813278310038" lon="11.733992456907966"><ele>271.0</ele><time>2026-05-03T10:46:18Z</time></trkpt><trkpt lat="43.19820064768176" lon="11.733984553530057"><ele>271.0</ele><time>2026-05-03T10:46:19Z</time></trkpt><trkpt lat="43.19826481046565" lon="11.733981980977639"><ele>271.0</ele><time>2026-05-03T10:46:20Z</time></trkpt><trkpt lat="43.198329168786906" lon="11.733975945866103"><ele>271.0</ele><time>2026-05-03T10:46:21Z</time></trkpt><trkpt lat="43.198395273651414" lon="11.733972814927862"><ele>271.0</ele><time>2026-05-03T10:46:22Z</time></trkpt><trkpt lat="43.198461646729314" lon="11.733969094945115"><ele>270.8</ele><time>2026-05-03T10:46:23Z</time></trkpt><trkpt lat="43.19852779010593" lon="11.733993279381963"><ele>270.6</ele><time>2026-05-03T10:46:24Z</time></trkpt><trkpt lat="43.19860089328598" lon="11.734002112246403"><ele>270.4</ele><time>2026-05-03T10:46:25Z</time></trkpt><trkpt lat="43.19869456944914" lon="11.73399431601993"><ele>270.2</ele><time>2026-05-03T10:46:26Z</time></trkpt><trkpt lat="43.19879819305991" lon="11.73401976880868"><ele>270.0</ele><time>2026-05-03T10:46:27Z</time></trkpt><trkpt lat="43.198912576585315" lon="11.734044769780338"><ele>269.25</ele><time>2026-05-03T10:46:28Z</time></trkpt><trkpt lat="43.199034063437026" lon="11.734075334634749"><ele>268.5</ele><time>2026-05-03T10:46:29Z</time></trkpt><trkpt lat="43.19915766519776" lon="11.734108198311027"><ele>267.75</ele><time>2026-05-03T10:46:30Z</time></trkpt><trkpt lat="43.19927401797729" lon="11.734136883283478"><ele>267.0</ele><time>2026-05-03T10:46:31Z</time></trkpt><trkpt lat="43.199382818184155" lon="11.734163474676329"><ele>267.0</ele><time>2026-05-03T10:46:32Z</time></trkpt><trkpt lat="43.19948049403536" lon="11.734184188662942"><ele>267.0</ele><time>2026-05-03T10:46:33Z</time></trkpt><trkpt lat="43.19957333482239" lon="11.734205308631235"><ele>267.0</ele><time>2026-05-03T10:46:34Z</time></trkpt><trkpt lat="43.19966094764392" lon="11.734229096773094"><ele>267.0</ele><time>2026-05-03T10:46:35Z</time></trkpt><trkpt lat="43.19974031821011" lon="11.734248053771566"><ele>267.0</ele><time>2026-05-03T10:46:36Z</time></trkpt><trkpt lat="43.19981304100251" lon="11.734267062496466"><ele>267.0</ele><time>2026-05-03T10:46:37Z</time></trkpt><trkpt lat="43.199912952739645" lon="11.734292509782803"><ele>267.2</ele><time>2026-05-03T10:46:39Z</time></trkpt><trkpt lat="43.199977808040465" lon="11.734311926363663"><ele>267.4</ele><time>2026-05-03T10:46:42Z</time></trkpt><trkpt lat="43.20004168200152" lon="11.73449198747641"><ele>267.6</ele><time>2026-05-03T10:46:47Z</time></trkpt><trkpt lat="43.20004412946316" lon="11.734626645858402"><ele>267.8</ele><time>2026-05-03T10:46:48Z</time></trkpt><trkpt lat="43.20006139915902" lon="11.734783389751641"><ele>268.0</ele><time>2026-05-03T10:46:49Z</time></trkpt><trkpt lat="43.20008441923569" lon="11.734965922313268"><ele>268.0</ele><time>2026-05-03T10:46:50Z</time></trkpt><trkpt lat="43.200107947187355" lon="11.735151615791294"><ele>268.0</ele><time>2026-05-03T10:46:51Z</time></trkpt><trkpt lat="43.20012966126508" lon="11.73534200586248"><ele>268.0</ele><time>2026-05-03T10:46:52Z</time></trkpt><trkpt lat="43.200150416456324" lon="11.735532993358428"><ele>268.0</ele><time>2026-05-03T10:46:53Z</time></trkpt><trkpt lat="43.20016420837988" lon="11.735706500585742"><ele>268.0</ele><time>2026-05-03T10:46:54Z</time></trkpt><trkpt lat="43.20017434438512" lon="11.735860700224732"><ele>268.0</ele><time>2026-05-03T10:46:55Z</time></trkpt><trkpt lat="43.20019206897027" lon="11.735997899965263"><ele>268.0</ele><time>2026-05-03T10:46:56Z</time></trkpt><trkpt lat="43.200204613367276" lon="11.736120838320533"><ele>268.0</ele><time>2026-05-03T10:46:57Z</time></trkpt><trkpt lat="43.200216576266286" lon="11.736225810673984"><ele>268.0</ele><time>2026-05-03T10:46:58Z</time></trkpt><trkpt lat="43.2002383303127" lon="11.736311792681933"><ele>268.0</ele><time>2026-05-03T10:46:59Z</time></trkpt><trkpt lat="43.20032084001114" lon="11.736377606659907"><ele>268.0</ele><time>2026-05-03T10:47:00Z</time></trkpt><trkpt lat="43.20039278376143" lon="11.736392828986602"><ele>268.0</ele><time>2026-05-03T10:47:01Z</time></trkpt><trkpt lat="43.20046549781971" lon="11.736408808352044"><ele>268.0</ele><time>2026-05-03T10:47:02Z</time></trkpt><trkpt lat="43.20053254337321" lon="11.736399457799196"><ele>268.0</ele><time>2026-05-03T10:47:03Z</time></trkpt><trkpt lat="43.20059732866804" lon="11.736245867671714"><ele>268.0</ele><time>2026-05-03T10:47:04Z</time></trkpt><trkpt lat="43.20064901758859" lon="11.73614164619771"><ele>268.0</ele><time>2026-05-03T10:47:05Z</time></trkpt><trkpt lat="43.20069640539856" lon="11.736021472047176"><ele>268.4</ele><time>2026-05-03T10:47:06Z</time></trkpt><trkpt lat="43.20075085865606" lon="11.735902566709584"><ele>268.8</ele><time>2026-05-03T10:47:07Z</time></trkpt><trkpt lat="43.20080628158926" lon="11.735801155992547"><ele>269.2</ele><time>2026-05-03T10:47:08Z</time></trkpt><trkpt lat="43.20086938156779" lon="11.735665561060959"><ele>269.6</ele><time>2026-05-03T10:47:09Z</time></trkpt><trkpt lat="43.20093194776517" lon="11.73553631574971"><ele>270.0</ele><time>2026-05-03T10:47:10Z</time></trkpt><trkpt lat="43.20100683095548" lon="11.735398867501367"><ele>270.0</ele><time>2026-05-03T10:47:11Z</time></trkpt><trkpt lat="43.201089824808236" lon="11.735245829781366"><ele>270.0</ele><time>2026-05-03T10:47:12Z</time></trkpt><trkpt lat="43.20117381063638" lon="11.735085257493083"><ele>270.0</ele><time>2026-05-03T10:47:13Z</time></trkpt><trkpt lat="43.20125012612978" lon="11.73492573208256"><ele>270.0</ele><time>2026-05-03T10:47:14Z</time></trkpt><trkpt lat="43.20132944090424" lon="11.734766308747641"><ele>270.5</ele><time>2026-05-03T10:47:15Z</time></trkpt><trkpt lat="43.20140172363086" lon="11.734610155863978"><ele>271.0</ele><time>2026-05-03T10:47:16Z</time></trkpt><trkpt lat="43.20148898455045" lon="11.734475269271623"><ele>271.5</ele><time>2026-05-03T10:47:17Z</time></trkpt><trkpt lat="43.20156353274514" lon="11.734323183881195"><ele>272.0</ele><time>2026-05-03T10:47:18Z</time></trkpt><trkpt lat="43.201639215383544" lon="11.734165348977948"><ele>274.0</ele><time>2026-05-03T10:47:19Z</time></trkpt><trkpt lat="43.201714418041085" lon="11.734008515016473"><ele>276.0</ele><time>2026-05-03T10:47:20Z</time></trkpt><trkpt lat="43.201791243841356" lon="11.733848296048365"><ele>278.0</ele><time>2026-05-03T10:47:21Z</time></trkpt><trkpt lat="43.20184986263668" lon="11.733684608985689"><ele>280.0</ele><time>2026-05-03T10:47:22Z</time></trkpt><trkpt lat="43.20191839684763" lon="11.733543610910598"><ele>280.6</ele><time>2026-05-03T10:47:23Z</time></trkpt><trkpt lat="43.201990280220315" lon="11.733414869828268"><ele>281.2</ele><time>2026-05-03T10:47:24Z</time></trkpt><trkpt lat="43.20204640786279" lon="11.73329054805819"><ele>281.8</ele><time>2026-05-03T10:47:25Z</time></trkpt><trkpt lat="43.20209865006827" lon="11.733176794382645"><ele>282.4</ele><time>2026-05-03T10:47:26Z</time></trkpt><trkpt lat="43.202131341237354" lon="11.73307597347099"><ele>283.0</ele><time>2026-05-03T10:47:27Z</time></trkpt><trkpt lat="43.20215546525837" lon="11.732992984198914"><ele>283.0</ele><time>2026-05-03T10:47:28Z</time></trkpt><trkpt lat="43.20218586800618" lon="11.732882764538225"><ele>283.0</ele><time>2026-05-03T10:47:30Z</time></trkpt><trkpt lat="43.20221684292623" lon="11.73278192726928"><ele>283.0</ele><time>2026-05-03T10:47:31Z</time></trkpt><trkpt lat="43.2022458845886" lon="11.73261268034484"><ele>283.0</ele><time>2026-05-03T10:47:32Z</time></trkpt><trkpt lat="43.2023014630005" lon="11.7323921851157"><ele>283.3333333333333</ele><time>2026-05-03T10:47:33Z</time></trkpt><trkpt lat="43.20235030510875" lon="11.732166819698064"><ele>283.6666666666667</ele><time>2026-05-03T10:47:34Z</time></trkpt><trkpt lat="43.202396694527366" lon="11.731931521425366"><ele>284.0</ele><time>2026-05-03T10:47:35Z</time></trkpt><trkpt lat="43.20246720141544" lon="11.731686993858334"><ele>285.6666666666667</ele><time>2026-05-03T10:47:36Z</time></trkpt><trkpt lat="43.20254289633421" lon="11.731439852882486"><ele>287.3333333333333</ele><time>2026-05-03T10:47:37Z</time></trkpt><trkpt lat="43.202624372591714" lon="11.731193105240486"><ele>289.0</ele><time>2026-05-03T10:47:38Z</time></trkpt><trkpt lat="43.20270388789471" lon="11.730955167321703"><ele>291.3333333333333</ele><time>2026-05-03T10:47:39Z</time></trkpt><trkpt lat="43.20278155412169" lon="11.73071988981536"><ele>293.6666666666667</ele><time>2026-05-03T10:47:40Z</time></trkpt><trkpt lat="43.202856335813166" lon="11.7304932218812"><ele>296.0</ele><time>2026-05-03T10:47:41Z</time></trkpt><trkpt lat="43.20292580966213" lon="11.730267148160635"><ele>295.6666666666667</ele><time>2026-05-03T10:47:42Z</time></trkpt><trkpt lat="43.20299546453436" lon="11.730048041612216"><ele>295.3333333333333</ele><time>2026-05-03T10:47:43Z</time></trkpt><trkpt lat="43.20308921420441" lon="11.729842603490916"><ele>295.0</ele><time>2026-05-03T10:47:44Z</time></trkpt><trkpt lat="43.20318752101862" lon="11.729632401720393"><ele>298.0</ele><time>2026-05-03T10:47:45Z</time></trkpt><trkpt lat="43.20338943445863" lon="11.729215200805191"><ele>301.0</ele><time>2026-05-03T10:47:47Z</time></trkpt><trkpt lat="43.20348709240989" lon="11.729038925788242"><ele>301.0</ele><time>2026-05-03T10:47:48Z</time></trkpt><trkpt lat="43.20357592231737" lon="11.72887412093464"><ele>301.0</ele><time>2026-05-03T10:47:49Z</time></trkpt><trkpt lat="43.203656818760265" lon="11.728734640108046"><ele>301.0</ele><time>2026-05-03T10:47:50Z</time></trkpt><trkpt lat="43.203725113102394" lon="11.728617129957605"><ele>301.0</ele><time>2026-05-03T10:47:51Z</time></trkpt><trkpt lat="43.20378088028585" lon="11.728518718890504"><ele>296.0</ele><time>2026-05-03T10:47:52Z</time></trkpt><trkpt lat="43.203838072465295" lon="11.72846289161984"><ele>296.0</ele><time>2026-05-03T10:47:53Z</time></trkpt><trkpt lat="43.2038901183787" lon="11.728413318591707"><ele>296.0</ele><time>2026-05-03T10:47:55Z</time></trkpt><trkpt lat="43.20395095048952" lon="11.728507353957989"><ele>296.0</ele><time>2026-05-03T10:47:57Z</time></trkpt><trkpt lat="43.20399848706743" lon="11.728615963682051"><ele>299.0</ele><time>2026-05-03T10:47:59Z</time></trkpt></trkseg></trk></gpx>